UA3778 / N455AW 7700 Squawk Report (28th of May, 2022)

Aircraft CRJ2 Reg No. N455AW Age N/A
Model Regional-Jet Jet engines 2 First flight 09-03
Registered 13-10-17 Rollout 09-03 Delivered 01-10-03
Construction No. 7848 Line No. N/A Series 200LR
ADSHEX A584C4 Airline name United Express Owner Air Wisconsin
Airfield based Chicago O`Hare~IL~N First tracked N/A

Flight history for N455AW

Route Flight No Date Playback
Erie Intl Tom Ridge Fld (ERI) - Chicago Ohare Intl (ORD) UA3773 2022-06-28 12:27:00
Chicago Ohare Intl (ORD) - Erie Intl Tom Ridge Fld (ERI) UA3791 2022-06-28 03:35:00
Sioux Falls (FSD) - Chicago Ohare Intl (ORD) UA3881 2022-06-28 02:21:00
Chicago Ohare Intl (ORD) - Sioux Falls (FSD) UA3793 2022-06-27 23:23:00
Toronto Pearson International (YYZ) - Chicago Ohare Intl (ORD) UA3862 2022-06-27 19:40:00
Chicago Ohare Intl (ORD) - Toronto Pearson International (YYZ) UA3856 2022-06-27 18:08:00
Duluth Intl (DLH) - Chicago Ohare Intl (ORD) UA3873 2022-06-27 14:30:00
Chicago Ohare Intl (ORD) - Duluth Intl (DLH) UA3774 2022-06-27 13:12:00
Lehigh Valley Intl (ABE) - Chicago Ohare Intl (ORD) UA3999 2022-06-26 23:44:00
Chicago Ohare Intl (ORD) - Lehigh Valley Intl (ABE) UA3847 2022-06-26 20:40:00
Eppley Airfield (OMA) - Chicago Ohare Intl (ORD) UA3826 2022-06-26 17:40:00
Chicago Ohare Intl (ORD) - Eppley Airfield (OMA) UA3788 2022-06-26 16:22:00
Ottawa Macdonald-Cartier (YOW) - Chicago Ohare Intl (ORD) UA3787 2022-06-26 12:56:00
Washington Dulles International (IAD) - Ottawa Macdonald-Cartier (YOW) UA3772 2022-06-25 22:48:00
Syracuse Hancock Intl (SYR) - Washington Dulles International (IAD) UA3790 2022-06-25 20:04:00
Washington Dulles International (IAD) - Syracuse Hancock Intl (SYR) UA3898 2022-06-25 18:08:00
Greater Rochester Intl (ROC) - Washington Dulles International (IAD) UA3855 2022-06-25 15:42:00
Washington Dulles International (IAD) - Greater Rochester Intl (ROC) UA3952 2022-06-25 13:42:00
Columbia Metropolitan (CAE) - Washington Dulles International (IAD) UA3720 2022-06-25 11:20:00
Chicago Ohare Intl (ORD) - Columbia Metropolitan (CAE) UA3933 2022-06-25 00:23:00
Time Lat Lon Altitude Heading Speed Vertical Rate
2022-05-28 16:48:04 GMT 32.129143 -81.250793 625 91 154 -1344
2022-05-28 16:48:00 GMT 32.129238 -81.254662 725 91 157 -1216
2022-05-28 16:47:57 GMT 32.129284 -81.258080 800 91 159 -448
2022-05-28 16:47:54 GMT 32.129330 -81.259811 800 91 159 -256
2022-05-28 16:47:49 GMT 32.129379 -81.263397 825 90 157 -832
2022-05-28 16:47:46 GMT 32.129379 -81.265594 875 90 156 -896
2022-05-28 16:47:44 GMT 32.129375 -81.267715 900 90 155 -832
2022-05-28 16:47:43 GMT 32.129379 -81.268837 925 90 154 -768
2022-05-28 16:47:41 GMT 32.129421 -81.270241 925 90 150 -576
2022-05-28 16:47:38 GMT 32.129471 -81.273041 975 90 150 -576
2022-05-28 16:47:36 GMT 32.129471 -81.274765 975 90 150 -576
2022-05-28 16:47:34 GMT 32.129471 -81.276253 1,000 88 152 -768
2022-05-28 16:47:32 GMT 32.129471 -81.277733 1,025 88 152 -768
2022-05-28 16:47:29 GMT 32.129471 -81.280334 1,050 88 152 -768
2022-05-28 16:47:28 GMT 32.129421 -81.281509 1,075 88 151 -832
2022-05-28 16:47:26 GMT 32.129375 -81.283134 1,100 89 151 -896
2022-05-28 16:47:23 GMT 32.129375 -81.286888 1,175 90 151 -1088
2022-05-28 16:47:20 GMT 32.129375 -81.288231 1,200 90 151 -960
2022-05-28 16:47:18 GMT 32.129375 -81.289864 1,225 90 153 -640
2022-05-28 16:47:16 GMT 32.129375 -81.291206 1,250 90 153 -640
2022-05-28 16:47:14 GMT 32.129379 -81.293938 1,300 90 154 -704
2022-05-28 16:47:12 GMT 32.129425 -81.295090 1,300 90 154 -768
2022-05-28 16:47:05 GMT 32.129471 -81.300529 1,400 90 156 -1088
2022-05-28 16:47:04 GMT 32.129517 -81.301353 1,425 90 156 -960
2022-05-28 16:47:00 GMT 32.129517 -81.304100 1,475 90 155 -832
2022-05-28 16:46:58 GMT 32.129517 -81.306297 1,500 90 158 -832
2022-05-28 16:46:54 GMT 32.129562 -81.309814 1,550 90 159 -1024
2022-05-28 16:46:52 GMT 32.129608 -81.311462 1,600 91 164 -704
2022-05-28 16:46:50 GMT 32.129608 -81.313606 1,625 91 170 -832
2022-05-28 16:46:48 GMT 32.129654 -81.315414 1,650 91 170 -832
2022-05-28 16:46:37 GMT 32.129841 -81.325623 1,800 91 179 -960
2022-05-28 16:46:21 GMT 32.130066 -81.341179 1,975 90 183 -512
2022-05-28 16:43:51 GMT 32.197174 -81.423691 2,025 232 180 -64
2022-05-28 16:43:38 GMT 32.200424 -81.412041 2,025 263 180 -448
2022-05-28 16:43:31 GMT 32.201206 -81.405441 2,100 262 185 -768
2022-05-28 16:43:19 GMT 32.202805 -81.392708 2,300 262 192 -1088
2022-05-28 16:43:12 GMT 32.203720 -81.385315 2,425 263 194 -1280
2022-05-28 16:42:59 GMT 32.205257 -81.372421 2,625 262 196 -1024
2022-05-28 16:42:51 GMT 32.206375 -81.363480 2,775 262 195 -1088
2022-05-28 16:42:40 GMT 32.207840 -81.351509 2,975 262 192 -768
2022-05-28 16:42:29 GMT 32.209076 -81.340797 3,125 262 184 -1024
2022-05-28 16:42:21 GMT 32.210098 -81.332123 3,275 263 182 -1152
2022-05-28 16:42:11 GMT 32.211182 -81.321899 3,450 263 185 -960
2022-05-28 16:41:59 GMT 32.212379 -81.310486 3,650 263 187 -1152
2022-05-28 16:41:46 GMT 32.213867 -81.297707 3,875 263 187 -1024
2022-05-28 16:41:37 GMT 32.215034 -81.287842 4,000 262 192 -640
2022-05-28 16:41:26 GMT 32.216354 -81.276688 4,025 263 191 256
2022-05-28 16:41:17 GMT 32.217453 -81.267105 4,025 263 190 192
2022-05-28 16:41:09 GMT 32.218506 -81.258125 4,025 263 190 -64
2022-05-28 16:41:06 GMT 32.218781 -81.256088 4,025 263 190 0
2022-05-28 16:40:57 GMT 32.219833 -81.246590 4,025 263 189 64
2022-05-28 16:40:49 GMT 32.220943 -81.237228 4,025 263 189 -128
2022-05-28 16:40:35 GMT 32.222527 -81.223381 4,025 263 187 128
2022-05-28 16:40:26 GMT 32.223366 -81.215256 4,025 263 187 -64
2022-05-28 16:40:16 GMT 32.224457 -81.204948 4,025 263 187 -64
2022-05-28 16:40:07 GMT 32.225510 -81.195229 4,025 263 185 -64
2022-05-28 16:39:56 GMT 32.226719 -81.183754 4,025 264 183 64
2022-05-28 16:39:46 GMT 32.227615 -81.174355 4,000 264 181 64
2022-05-28 16:39:33 GMT 32.228943 -81.160896 4,000 264 184 64
2022-05-28 16:39:24 GMT 32.229721 -81.152542 4,025 263 193 -384
2022-05-28 16:39:15 GMT 32.230766 -81.142273 4,100 264 198 -832
2022-05-28 16:39:04 GMT 32.231964 -81.130684 4,225 263 204 -768
2022-05-28 16:38:54 GMT 32.233292 -81.119255 4,350 263 211 -768
2022-05-28 16:38:44 GMT 32.234619 -81.107498 4,475 263 216 -768
2022-05-28 16:38:33 GMT 32.236122 -81.094742 4,625 263 227 -768
2022-05-28 16:38:23 GMT 32.237411 -81.083549 4,800 263 238 -896
2022-05-28 16:38:12 GMT 32.239147 -81.068619 4,900 263 241 -896
2022-05-28 16:38:00 GMT 32.240936 -81.053116 5,050 263 249 -896
2022-05-28 16:37:51 GMT 32.242538 -81.039223 5,250 263 255 -1280
2022-05-28 16:37:42 GMT 32.243801 -81.027985 5,400 263 259 -1216
2022-05-28 16:37:40 GMT 32.244034 -81.025742 5,450 263 260 -1216
2022-05-28 16:37:29 GMT 32.245697 -81.011536 5,675 263 260 -1280
2022-05-28 16:37:26 GMT 32.246593 -81.003769 5,675 263 260 -1280
2022-05-28 16:37:21 GMT 32.247070 -80.999397 5,825 263 260 -1280
2022-05-28 16:37:17 GMT 32.247711 -80.993790 5,900 263 260 -1216
2022-05-28 16:37:11 GMT 32.248718 -80.984512 6,025 263 259 -1280
2022-05-28 16:37:09 GMT 32.249107 -80.981010 6,075 263 259 -1216
2022-05-28 16:36:58 GMT 32.250645 -80.967278 6,275 263 258 -1280
2022-05-28 16:36:50 GMT 32.251923 -80.955673 6,450 263 259 -1344
2022-05-28 16:36:47 GMT 32.252460 -80.951355 6,525 263 259 -1344
2022-05-28 16:36:39 GMT 32.253765 -80.940430 6,675 262 258 -1216
2022-05-28 16:36:34 GMT 32.254807 -80.931885 6,800 262 259 -1280
2022-05-28 16:36:29 GMT 32.255447 -80.927109 6,850 261 260 -1216
2022-05-28 16:36:27 GMT 32.255997 -80.922928 6,925 261 260 -1216
2022-05-28 16:36:20 GMT 32.257278 -80.913651 7,050 261 262 -1344
2022-05-28 16:36:15 GMT 32.258560 -80.904587 7,200 261 262 -1280
2022-05-28 16:36:09 GMT 32.259613 -80.897224 7,300 261 264 -1600
2022-05-28 16:36:04 GMT 32.260376 -80.891380 7,400 261 265 -1408
2022-05-28 16:35:59 GMT 32.261398 -80.883926 7,525 262 267 -1216
2022-05-28 16:35:54 GMT 32.262379 -80.876755 7,625 261 267 -1344
2022-05-28 16:35:47 GMT 32.264145 -80.864136 7,800 261 264 -1280
2022-05-28 16:35:39 GMT 32.265518 -80.854927 7,900 259 261 -1024
2022-05-28 16:35:36 GMT 32.266335 -80.850014 7,950 258 263 -768
2022-05-28 16:35:23 GMT 32.270508 -80.832901 8,025 250 269 -128
2022-05-28 16:35:15 GMT 32.274853 -80.821312 8,025 246 271 128
2022-05-28 16:35:06 GMT 32.279461 -80.809486 8,025 246 270 0
2022-05-28 16:35:02 GMT 32.282066 -80.802765 8,025 246 270 64
2022-05-28 16:34:54 GMT 32.285839 -80.793121 8,025 246 269 0
2022-05-28 16:34:43 GMT 32.291939 -80.777313 8,025 246 268 0
2022-05-28 16:34:37 GMT 32.294170 -80.771431 8,025 247 268 -64
2022-05-28 16:34:26 GMT 32.299667 -80.756874 8,025 247 266 0
2022-05-28 16:32:22 GMT 32.364048 -80.590096 9,350 245 271 -1088
2022-05-28 16:30:24 GMT 32.471813 -80.434158 11,125 229 366 -1088
2022-05-28 16:30:15 GMT 32.480846 -80.422218 11,250 229 365 -1024
2022-05-28 16:30:02 GMT 32.497009 -80.401024 11,475 229 362 -1024
2022-05-28 16:29:54 GMT 32.504837 -80.390755 11,600 229 361 -1088
2022-05-28 16:29:45 GMT 32.515762 -80.376427 11,775 229 363 -1088
2022-05-28 16:29:33 GMT 32.527679 -80.360786 11,950 229 363 -1024
2022-05-28 16:29:22 GMT 32.540108 -80.344475 12,125 229 364 -1088
2022-05-28 16:29:13 GMT 32.552261 -80.328629 12,300 228 366 -1088
2022-05-28 16:29:06 GMT 32.559357 -80.319397 12,425 228 366 -1088
2022-05-28 16:29:01 GMT 32.564438 -80.312859 12,500 228 367 -1088
2022-05-28 16:28:51 GMT 32.576523 -80.298027 12,675 225 370 -1024
2022-05-28 16:28:37 GMT 32.595383 -80.277817 12,900 221 372 -1024
2022-05-28 16:28:30 GMT 32.604675 -80.269188 13,025 217 376 -1088
2022-05-28 16:28:20 GMT 32.620316 -80.256363 13,200 214 378 -1024
2022-05-28 16:28:04 GMT 32.640987 -80.239937 13,450 214 380 -1024
2022-05-28 16:27:58 GMT 32.651093 -80.231888 13,550 214 381 -1024
2022-05-28 16:27:47 GMT 32.665707 -80.220261 13,725 214 384 -1024
2022-05-28 16:27:43 GMT 32.671616 -80.215553 13,800 214 384 -1024
2022-05-28 16:27:38 GMT 32.680939 -80.208107 13,900 214 386 -1024
2022-05-28 16:27:26 GMT 32.696896 -80.195435 14,075 215 388 -1024
2022-05-28 16:27:17 GMT 32.712936 -80.182617 14,250 214 392 -1024
2022-05-28 16:27:11 GMT 32.719753 -80.177269 14,325 214 392 -1024
2022-05-28 16:27:05 GMT 32.728550 -80.170265 14,425 214 394 -1024
2022-05-28 16:27:02 GMT 32.733856 -80.166031 14,475 214 396 -1024
2022-05-28 16:26:56 GMT 32.744522 -80.157516 14,600 215 397 -1024
2022-05-28 16:26:52 GMT 32.748940 -80.153954 14,650 215 398 -1024
2022-05-28 16:26:44 GMT 32.761093 -80.144218 14,775 214 401 -1088
2022-05-28 16:26:41 GMT 32.765717 -80.140541 14,825 214 402 -1088
2022-05-28 16:26:35 GMT 32.776291 -80.132187 14,950 214 404 -1088
2022-05-28 16:26:29 GMT 32.784119 -80.126038 15,050 214 405 -1216
2022-05-28 16:26:18 GMT 32.800735 -80.112907 15,475 214 407 -1600
2022-05-28 16:26:09 GMT 32.817719 -80.099449 15,575 214 407 -1600
2022-05-28 16:25:58 GMT 32.834061 -80.086540 15,850 214 408 -1600
2022-05-28 16:25:48 GMT 32.850330 -80.073685 16,100 214 410 -1600
2022-05-28 16:25:39 GMT 32.863174 -80.063522 16,325 214 411 -1600
2022-05-28 16:25:36 GMT 32.868069 -80.059616 16,375 214 411 -1600
2022-05-28 16:25:27 GMT 32.884315 -80.046837 16,650 214 413 -1536
2022-05-28 16:25:18 GMT 32.896133 -80.037926 16,825 211 415 -1536
2022-05-28 16:25:15 GMT 32.901958 -80.033943 16,900 210 415 -1536
2022-05-28 16:25:08 GMT 32.913208 -80.026443 17,075 210 416 -1536
2022-05-28 16:25:04 GMT 32.921139 -80.021164 17,550 210 418 -1600
2022-05-28 16:24:59 GMT 32.930420 -80.014969 17,325 210 417 -1600
2022-05-28 16:24:55 GMT 32.936314 -80.011070 17,425 210 418 -1536
2022-05-28 16:24:47 GMT 32.948139 -80.003227 17,600 210 419 -1536
2022-05-28 16:24:43 GMT 32.957474 -79.997002 17,725 210 421 -1600
2022-05-28 16:24:37 GMT 32.965988 -79.991287 17,850 210 422 -1600
2022-05-28 16:24:34 GMT 32.972809 -79.986732 17,950 210 424 -1600
2022-05-28 16:24:30 GMT 32.977745 -79.983383 18,025 210 424 -1600
2022-05-28 16:24:27 GMT 32.983383 -79.979591 18,100 210 425 -1600
2022-05-28 16:24:21 GMT 32.993572 -79.972847 18,250 210 428 -1600
2022-05-28 16:24:16 GMT 33.002014 -79.967178 18,375 210 429 -1600
2022-05-28 16:24:12 GMT 33.011032 -79.961136 18,525 210 431 -1536
2022-05-28 16:24:05 GMT 33.020096 -79.955032 18,650 210 432 -1472
2022-05-28 16:24:02 GMT 33.027229 -79.950256 18,800 210 432 -1600
2022-05-28 16:23:55 GMT 33.037582 -79.943390 18,900 210 433 -1536
2022-05-28 16:23:49 GMT 33.049667 -79.935349 19,075 210 433 -1600
2022-05-28 16:23:45 GMT 33.055801 -79.931252 19,150 210 435 -1600
2022-05-28 16:23:40 GMT 33.065277 -79.924881 19,300 210 435 -1600
2022-05-28 16:23:35 GMT 33.073700 -79.919220 19,425 210 436 -1536
2022-05-28 16:23:30 GMT 33.085140 -79.911583 19,625 210 437 -1472
2022-05-28 16:23:24 GMT 33.092545 -79.906593 19,675 210 437 -1536
2022-05-28 16:23:19 GMT 33.102997 -79.899612 19,825 210 439 -1536
2022-05-28 16:23:14 GMT 33.110653 -79.894485 19,925 210 439 -1536
2022-05-28 16:23:08 GMT 33.120758 -79.887688 20,075 210 441 -1472
2022-05-28 16:23:03 GMT 33.129272 -79.881920 20,175 210 441 -1536
2022-05-28 16:22:57 GMT 33.140167 -79.874588 20,325 210 442 -1536
2022-05-28 16:22:53 GMT 33.147335 -79.869820 20,450 210 443 -1600
2022-05-28 16:22:47 GMT 33.160034 -79.861267 20,625 210 445 -1600
2022-05-28 16:22:43 GMT 33.166489 -79.856926 20,725 210 445 -1536
2022-05-28 16:22:37 GMT 33.176605 -79.850174 20,850 210 446 -1600
2022-05-28 16:22:32 GMT 33.184891 -79.844566 20,975 210 447 -1600
2022-05-28 16:22:28 GMT 33.196106 -79.837097 21,125 210 448 -1600
2022-05-28 16:22:22 GMT 33.203705 -79.831985 21,250 210 449 -1600
2022-05-28 16:22:16 GMT 33.215332 -79.824188 21,400 210 450 -1536
2022-05-28 16:22:12 GMT 33.222244 -79.819519 21,500 210 451 -1536
2022-05-28 16:22:06 GMT 33.242069 -79.806145 21,650 210 451 -1280
2022-05-28 16:22:01 GMT 33.242069 -79.806145 21,725 210 451 -1216
2022-05-28 16:21:55 GMT 33.260101 -79.794029 21,950 210 451 -1280
2022-05-28 16:21:51 GMT 33.260101 -79.794029 21,925 210 452 -1280
2022-05-28 16:21:45 GMT 33.273026 -79.785347 22,075 210 451 -1280
2022-05-28 16:21:41 GMT 33.278847 -79.781425 22,125 210 451 -1280
2022-05-28 16:21:35 GMT 33.291649 -79.772850 22,275 210 451 -1344
2022-05-28 16:21:30 GMT 33.298004 -79.768539 22,350 210 451 -1344
2022-05-28 16:21:23 GMT 33.311291 -79.759506 22,500 210 452 -1344
2022-05-28 16:21:20 GMT 33.316414 -79.756088 22,575 210 452 -1344
2022-05-28 16:21:13 GMT 33.331192 -79.746078 22,750 210 452 -1280
2022-05-28 16:21:09 GMT 33.336105 -79.742752 22,800 210 452 -1280
2022-05-28 16:21:02 GMT 33.349606 -79.733665 22,925 210 451 -1024
2022-05-28 16:20:59 GMT 33.355225 -79.729874 22,975 210 450 -832
2022-05-28 16:20:53 GMT 33.367760 -79.721451 23,000 210 450 0
2022-05-28 16:20:49 GMT 33.373207 -79.717804 23,000 210 450 64
2022-05-28 16:20:43 GMT 33.386078 -79.709160 23,000 210 449 0
2022-05-28 16:20:38 GMT 33.392433 -79.704857 23,000 210 449 -64
2022-05-28 16:20:31 GMT 33.406166 -79.695610 23,000 210 448 -64
2022-05-28 16:20:28 GMT 33.410496 -79.692696 23,000 210 448 -64
2022-05-28 16:20:21 GMT 33.424973 -79.682884 23,000 210 448 0
2022-05-28 16:20:18 GMT 33.429108 -79.680099 23,000 210 448 64
2022-05-28 16:20:11 GMT 33.442661 -79.670944 23,000 210 448 64
2022-05-28 16:20:07 GMT 33.448437 -79.667023 23,000 210 448 64
2022-05-28 16:20:01 GMT 33.460724 -79.658730 23,000 210 448 -64
2022-05-28 16:19:57 GMT 33.466690 -79.654671 23,000 210 448 -64
2022-05-28 16:19:51 GMT 33.480228 -79.645554 23,000 210 448 0
2022-05-28 16:19:47 GMT 33.485458 -79.641983 23,000 210 447 0
2022-05-28 16:19:39 GMT 33.498989 -79.632774 23,000 210 447 64
2022-05-28 16:19:36 GMT 33.504593 -79.629013 23,000 210 447 64
2022-05-28 16:19:30 GMT 33.517914 -79.619949 23,000 210 447 64
2022-05-28 16:19:26 GMT 33.523151 -79.616409 23,000 210 447 0
2022-05-28 16:19:20 GMT 33.536140 -79.607605 23,000 210 447 0
2022-05-28 16:19:16 GMT 33.541718 -79.603798 23,000 210 447 0
2022-05-28 16:19:08 GMT 33.554527 -79.595146 23,000 210 446 0
2022-05-28 16:19:05 GMT 33.560299 -79.591255 23,000 210 446 0
2022-05-28 16:18:55 GMT 33.579014 -79.578552 23,000 210 446 64
2022-05-28 16:18:47 GMT 33.593445 -79.568771 23,000 210 446 0
2022-05-28 16:18:44 GMT 33.598663 -79.565231 23,000 210 446 0
2022-05-28 16:18:34 GMT 33.616489 -79.553146 23,000 210 446 0
2022-05-28 16:18:28 GMT 33.629803 -79.544106 23,000 210 446 0
2022-05-28 16:18:24 GMT 33.635201 -79.540443 23,000 210 447 0
2022-05-28 16:18:17 GMT 33.647598 -79.532043 23,000 210 447 0
2022-05-28 16:18:13 GMT 33.653915 -79.527740 23,000 210 447 0
2022-05-28 16:18:07 GMT 33.667786 -79.518372 23,000 210 447 64
2022-05-28 16:18:03 GMT 33.671932 -79.515556 23,000 210 447 64
2022-05-28 16:17:56 GMT 33.687607 -79.504860 23,000 210 447 0
2022-05-28 16:17:53 GMT 33.691391 -79.502274 23,000 210 447 0
2022-05-28 16:17:45 GMT 33.707748 -79.491127 23,000 210 447 0
2022-05-28 16:17:42 GMT 33.709732 -79.489799 23,000 210 447 0
2022-05-28 16:17:32 GMT 33.728302 -79.477119 23,000 210 447 0
2022-05-28 16:17:22 GMT 33.746880 -79.464516 23,000 210 447 0
2022-05-28 16:17:14 GMT 33.762955 -79.453575 23,000 210 447 0
2022-05-28 16:17:11 GMT 33.765640 -79.451752 23,000 210 447 0
2022-05-28 16:17:01 GMT 33.784031 -79.439217 23,000 210 447 0
2022-05-28 16:16:50 GMT 33.803162 -79.426170 23,000 210 447 64
2022-05-28 16:16:40 GMT 33.821922 -79.413414 23,000 210 448 0
2022-05-28 16:16:30 GMT 33.840500 -79.400772 23,000 210 448 0
2022-05-28 16:16:20 GMT 33.858582 -79.388443 23,000 210 448 0
2022-05-28 16:16:09 GMT 33.877552 -79.375481 23,000 210 449 -64
2022-05-28 16:15:59 GMT 33.896732 -79.362373 23,000 210 448 64
2022-05-28 16:15:49 GMT 33.914795 -79.350014 23,000 210 448 64
2022-05-28 16:15:38 GMT 33.934158 -79.336815 23,000 210 448 0
2022-05-28 16:15:29 GMT 33.951340 -79.325066 23,000 210 448 64
2022-05-28 16:15:26 GMT 33.955856 -79.322021 23,000 210 449 0
2022-05-28 16:15:18 GMT 33.972286 -79.310699 23,000 210 449 0
2022-05-28 16:15:07 GMT 33.996368 -79.294159 23,000 210 450 0
2022-05-28 16:14:57 GMT 34.008457 -79.285873 23,025 210 450 -192
2022-05-28 16:14:45 GMT 34.029827 -79.271164 23,050 210 450 -512
2022-05-28 16:14:35 GMT 34.047562 -79.258980 23,175 210 448 -512
2022-05-28 16:14:25 GMT 34.067020 -79.245644 23,225 210 447 -512
2022-05-28 16:14:14 GMT 34.086594 -79.232162 23,325 210 445 -512
2022-05-28 16:14:05 GMT 34.104446 -79.219887 23,400 210 443 -512
2022-05-28 16:13:53 GMT 34.122791 -79.207306 23,500 210 441 -512
2022-05-28 16:13:45 GMT 34.139736 -79.195633 23,600 210 437 -576
2022-05-28 16:13:41 GMT 34.145554 -79.191643 23,600 210 437 -576
2022-05-28 16:13:33 GMT 34.159473 -79.182129 23,675 210 435 -576
2022-05-28 16:13:23 GMT 34.178146 -79.169273 23,775 210 433 -512
2022-05-28 16:13:12 GMT 34.195908 -79.157059 23,850 210 430 -512
2022-05-28 16:13:01 GMT 34.215591 -79.143494 23,950 210 428 -448
2022-05-28 16:12:55 GMT 34.232071 -79.132111 24,000 210 426 -64
2022-05-28 16:12:51 GMT 34.232071 -79.132111 24,000 210 426 0
2022-05-28 16:12:47 GMT 34.238251 -79.127853 24,000 210 426 -64
2022-05-28 16:12:41 GMT 34.249878 -79.119781 24,000 210 426 64
2022-05-28 16:12:29 GMT 34.269424 -79.106323 24,000 210 426 -64
2022-05-28 16:12:22 GMT 34.282745 -79.097076 24,000 210 425 0
2022-05-28 16:12:17 GMT 34.288925 -79.092819 24,000 210 425 64
2022-05-28 16:12:09 GMT 34.303574 -79.082672 24,000 210 424 0
2022-05-28 16:11:58 GMT 34.322342 -79.069672 24,000 210 424 0
2022-05-28 16:11:49 GMT 34.339211 -79.058022 24,000 210 423 0
2022-05-28 16:11:39 GMT 34.354340 -79.047531 24,000 210 423 0
2022-05-28 16:11:36 GMT 34.360428 -79.043327 24,000 210 422 0
2022-05-28 16:11:28 GMT 34.374496 -79.033585 24,000 210 421 0
2022-05-28 16:11:24 GMT 34.380798 -79.029198 24,000 210 421 0
2022-05-28 16:11:17 GMT 34.392288 -79.021240 24,000 210 421 0
2022-05-28 16:11:07 GMT 34.410065 -79.008926 24,000 210 420 0
2022-05-28 16:10:55 GMT 34.428265 -78.996223 24,000 210 419 0
2022-05-28 16:10:46 GMT 34.445770 -78.984093 24,000 210 418 0
2022-05-28 16:10:34 GMT 34.464752 -78.970901 24,000 210 416 0
2022-05-28 16:10:25 GMT 34.498444 -78.947472 24,000 210 410 0
2022-05-28 16:10:14 GMT 34.498444 -78.947472 24,000 210 413 64
2022-05-28 16:10:05 GMT 34.513000 -78.937325 24,000 210 412 0
2022-05-28 16:10:00 GMT 34.520279 -78.932228 24,000 210 412 0
2022-05-28 16:09:55 GMT 34.530167 -78.925331 24,000 210 410 0
2022-05-28 16:09:52 GMT 34.534966 -78.922005 24,000 211 409 0
2022-05-28 16:09:42 GMT 34.549896 -78.911598 24,000 210 408 0
2022-05-28 16:09:36 GMT 34.561340 -78.903587 24,000 211 406 0
2022-05-28 16:09:33 GMT 34.566879 -78.899719 24,000 210 406 -64
2022-05-28 16:09:22 GMT 34.583496 -78.888168 24,000 210 402 -64
2022-05-28 16:09:12 GMT 34.600937 -78.876007 24,025 210 400 64
2022-05-28 16:09:03 GMT 34.614075 -78.866814 24,000 210 396 64
2022-05-28 16:09:00 GMT 34.618195 -78.863953 24,000 210 396 0
2022-05-28 16:08:54 GMT 34.629959 -78.855774 24,000 211 393 128
2022-05-28 16:08:51 GMT 34.633759 -78.853081 24,000 211 393 128
2022-05-28 16:08:40 GMT 34.650600 -78.841324 24,000 210 390 0
2022-05-28 16:08:33 GMT 34.663239 -78.832512 23,950 210 388 832
2022-05-28 16:08:30 GMT 34.666351 -78.830322 23,900 210 388 1280
2022-05-28 16:08:22 GMT 34.678253 -78.822083 23,675 210 391 1152
2022-05-28 16:08:19 GMT 34.694733 -78.810593 23,100 210 386 832
2022-05-28 16:08:11 GMT 34.694733 -78.810593 23,600 210 391 768
2022-05-28 16:08:08 GMT 34.699432 -78.807281 23,550 210 391 512
2022-05-28 16:08:01 GMT 34.712887 -78.797897 23,525 210 388 256
2022-05-28 16:07:58 GMT 34.716156 -78.795624 23,500 210 387 384
2022-05-28 16:07:51 GMT 34.732040 -78.784584 23,425 210 386 832
2022-05-28 16:07:48 GMT 34.732040 -78.784584 23,400 210 386 1088
2022-05-28 16:07:41 GMT 34.741653 -78.777855 23,250 211 387 1536
2022-05-28 16:07:38 GMT 34.748795 -78.772865 23,150 211 387 1536
2022-05-28 16:07:32 GMT 34.762848 -78.763062 23,000 210 389 1216
2022-05-28 16:07:29 GMT 34.762848 -78.763062 22,950 210 389 1088
2022-05-28 16:07:26 GMT 34.765209 -78.761444 22,950 210 389 1088
2022-05-28 16:07:20 GMT 34.774429 -78.754990 22,825 210 390 1024
2022-05-28 16:07:17 GMT 34.781616 -78.750000 22,775 210 389 960
2022-05-28 16:07:10 GMT 34.791512 -78.743134 22,700 210 389 768
2022-05-28 16:07:06 GMT 34.797272 -78.739067 22,650 210 388 640
2022-05-28 16:06:59 GMT 34.807713 -78.731804 22,600 210 387 512
2022-05-28 16:06:56 GMT 34.813950 -78.727455 22,575 210 386 640
2022-05-28 16:06:49 GMT 34.823730 -78.720627 22,475 210 385 1024
2022-05-28 16:06:45 GMT 34.830231 -78.716141 22,400 210 386 1152
2022-05-28 16:06:39 GMT 34.839844 -78.709419 22,325 210 386 768
2022-05-28 16:06:35 GMT 34.846619 -78.704651 22,275 210 384 256
2022-05-28 16:06:28 GMT 34.856033 -78.698097 22,250 210 383 256
2022-05-28 16:06:23 GMT 34.863281 -78.693047 22,225 210 381 448
2022-05-28 16:06:17 GMT 34.872280 -78.686768 22,150 211 379 1024
2022-05-28 16:06:14 GMT 34.878380 -78.682480 22,075 211 379 1472
2022-05-28 16:06:08 GMT 34.894581 -78.671204 21,825 210 382 1600
2022-05-28 16:06:03 GMT 34.894581 -78.671204 21,775 210 383 1600
2022-05-28 16:05:56 GMT 34.905853 -78.663399 21,550 210 383 1152
2022-05-28 16:05:52 GMT 34.912033 -78.659081 21,550 210 383 1216
2022-05-28 16:05:47 GMT 34.918324 -78.654671 21,200 204 385 704
2022-05-28 16:05:42 GMT 34.926819 -78.648827 21,400 209 383 704
2022-05-28 16:05:38 GMT 34.932175 -78.645409 21,375 204 385 704
2022-05-28 16:05:35 GMT 34.938152 -78.642029 21,200 192 390 1024
2022-05-28 16:05:32 GMT 34.944809 -78.638878 21,250 199 387 960
2022-05-28 16:05:27 GMT 34.950760 -78.636551 21,075 192 390 1024
2022-05-28 16:05:23 GMT 34.958130 -78.634308 21,125 190 392 1024
2022-05-28 16:05:20 GMT 34.962753 -78.633240 21,100 189 392 1024
2022-05-28 16:05:16 GMT 34.977676 -78.631676 21,000 182 397 832
2022-05-28 16:05:13 GMT 34.977676 -78.631676 20,975 180 398 832
2022-05-28 16:05:10 GMT 34.980652 -78.631729 20,925 176 399 896
2022-05-28 16:05:07 GMT 34.989120 -78.632347 20,875 173 401 1152
2022-05-28 16:05:04 GMT 34.993561 -78.632851 20,825 173 401 1152
2022-05-28 16:04:59 GMT 35.001343 -78.633972 20,750 173 401 1152
2022-05-28 16:04:56 GMT 35.007793 -78.634872 20,700 173 401 1152
2022-05-28 16:04:53 GMT 35.012962 -78.635612 20,600 173 401 1280
2022-05-28 16:04:50 GMT 35.021111 -78.636818 20,550 173 401 1344
2022-05-28 16:04:42 GMT 35.034424 -78.638763 20,375 173 402 1728
2022-05-28 16:04:39 GMT 35.041306 -78.639748 20,275 173 403 1856
2022-05-28 16:04:32 GMT 35.059746 -78.642426 20,100 173 405 1024
2022-05-28 16:04:28 GMT 35.059746 -78.642426 20,075 173 405 448
2022-05-28 16:04:21 GMT 35.074272 -78.644485 20,025 173 402 512
2022-05-28 16:04:18 GMT 35.079437 -78.645226 20,000 173 401 576
2022-05-28 16:04:11 GMT 35.091263 -78.646889 19,850 173 400 1856
2022-05-28 16:04:07 GMT 35.098618 -78.647919 19,775 173 400 2112
2022-05-28 16:04:03 GMT 35.105072 -78.648827 19,650 173 401 2176
2022-05-28 16:04:00 GMT 35.113049 -78.649979 19,525 173 403 2048
2022-05-28 16:03:57 GMT 35.118439 -78.650734 19,425 173 404 1856
2022-05-28 16:03:52 GMT 35.132416 -78.652725 19,275 173 405 1088
2022-05-28 16:03:49 GMT 35.132416 -78.652725 19,250 173 405 1280
2022-05-28 16:03:45 GMT 35.139118 -78.653641 19,175 173 405 1088
2022-05-28 16:03:42 GMT 35.145123 -78.654495 19,100 173 403 1088
2022-05-28 16:03:39 GMT 35.152199 -78.655472 19,075 173 403 1088
2022-05-28 16:03:36 GMT 35.157211 -78.656227 19,025 173 403 1152
2022-05-28 16:03:31 GMT 35.165932 -78.657417 18,900 173 402 1408
2022-05-28 16:03:28 GMT 35.170944 -78.658127 18,875 173 402 1344
2022-05-28 16:03:22 GMT 35.181110 -78.659531 18,700 173 400 640
2022-05-28 16:03:19 GMT 35.187393 -78.660454 18,625 173 400 640
2022-05-28 16:03:15 GMT 35.196983 -78.661819 18,550 173 398 832
2022-05-28 16:03:12 GMT 35.200882 -78.662392 18,600 173 397 1216
2022-05-28 16:03:09 GMT 35.207840 -78.663345 18,575 173 397 1216
2022-05-28 16:03:05 GMT 35.214432 -78.664238 18,500 173 397 1216
2022-05-28 16:03:02 GMT 35.219002 -78.664909 18,375 173 396 1088
2022-05-28 16:02:57 GMT 35.227753 -78.666115 18,375 173 396 1088
2022-05-28 16:02:54 GMT 35.235062 -78.667137 18,300 173 395 896
2022-05-28 16:02:50 GMT 35.242859 -78.668236 18,250 173 393 896
2022-05-28 16:02:47 GMT 35.247574 -78.668922 18,225 173 392 960
2022-05-28 16:02:44 GMT 35.256638 -78.670120 18,150 173 392 1088
2022-05-28 16:02:41 GMT 35.256638 -78.670120 18,125 173 391 1216
2022-05-28 16:02:38 GMT 35.267605 -78.671638 18,025 173 391 1280
2022-05-28 16:02:35 GMT 35.267605 -78.671638 18,000 173 390 1280
2022-05-28 16:02:31 GMT 35.275143 -78.672745 17,925 173 390 1280
2022-05-28 16:02:26 GMT 35.286484 -78.674294 17,800 173 389 1280
2022-05-28 16:02:21 GMT 35.293858 -78.675316 17,725 173 389 1152
2022-05-28 16:02:18 GMT 35.299759 -78.676125 17,650 173 388 1088
2022-05-28 16:02:15 GMT 35.303867 -78.676720 17,625 173 387 1152
2022-05-28 16:02:12 GMT 35.310837 -78.677673 17,550 173 387 1216
2022-05-28 16:02:08 GMT 35.316147 -78.678474 17,425 173 386 1216
2022-05-28 16:02:05 GMT 35.323288 -78.679443 17,400 173 386 1216
2022-05-28 16:02:00 GMT 35.329697 -78.680367 17,325 173 385 1088
2022-05-28 16:01:57 GMT 35.337666 -78.681450 17,275 173 384 1024
2022-05-28 16:01:54 GMT 35.341370 -78.681969 17,200 173 383 1088
2022-05-28 16:01:51 GMT 35.348053 -78.682877 17,150 173 382 1280
2022-05-28 16:01:48 GMT 35.352840 -78.683556 17,100 173 382 1408
2022-05-28 16:01:44 GMT 35.360046 -78.684540 17,000 173 381 1664
2022-05-28 16:01:39 GMT 35.367596 -78.685600 16,875 173 382 1600
2022-05-28 16:01:35 GMT 35.375519 -78.686661 16,775 173 381 1216
2022-05-28 16:01:32 GMT 35.378864 -78.687119 16,750 173 381 1216
2022-05-28 16:01:28 GMT 35.386047 -78.688087 16,675 173 380 1152
2022-05-28 16:01:25 GMT 35.391804 -78.688873 16,550 173 379 1472
2022-05-28 16:01:22 GMT 35.396210 -78.689522 16,375 173 378 1664
2022-05-28 16:01:19 GMT 35.404049 -78.690567 16,425 173 378 1792
2022-05-28 16:01:15 GMT 35.411030 -78.691505 16,325 173 379 1920
2022-05-28 16:01:12 GMT 35.415390 -78.692093 16,250 173 379 1856
2022-05-28 16:01:08 GMT 35.422028 -78.693008 16,125 173 379 1792
2022-05-28 16:01:04 GMT 35.428665 -78.693871 16,025 173 379 1856
2022-05-28 16:01:01 GMT 35.433884 -78.694550 15,925 173 380 1920
2022-05-28 16:00:56 GMT 35.443199 -78.695831 15,825 173 380 1984
2022-05-28 16:00:52 GMT 35.451252 -78.696938 15,625 173 381 1664
2022-05-28 16:00:46 GMT 35.459473 -78.698044 15,525 173 381 1280
2022-05-28 16:00:43 GMT 35.466843 -78.699020 15,450 173 380 1152
2022-05-28 16:00:40 GMT 35.470001 -78.699417 15,400 173 379 1216
2022-05-28 16:00:37 GMT 35.477325 -78.700447 15,275 173 378 1536
2022-05-28 16:00:34 GMT 35.482395 -78.701149 15,225 173 377 1664
2022-05-28 16:00:31 GMT 35.487610 -78.701843 15,150 173 377 1792
2022-05-28 16:00:28 GMT 35.492661 -78.702507 15,075 174 376 1664
2022-05-28 16:00:25 GMT 35.497337 -78.703072 14,625 181 372 1088
2022-05-28 16:00:20 GMT 35.505844 -78.703590 14,925 180 373 1088
2022-05-28 16:00:17 GMT 35.512756 -78.703484 14,850 183 371 1088
2022-05-28 16:00:13 GMT 35.519077 -78.703018 14,800 186 367 1088
2022-05-28 16:00:10 GMT 35.523502 -78.702492 14,750 187 365 1152
2022-05-28 16:00:04 GMT 35.533508 -78.700737 14,625 191 362 1152
2022-05-28 16:00:01 GMT 35.539097 -78.699333 14,575 193 360 1280
2022-05-28 15:59:58 GMT 35.542355 -78.698456 14,525 194 359 1344
2022-05-28 15:59:54 GMT 35.549805 -78.696182 14,425 195 357 1472
2022-05-28 15:59:51 GMT 35.555420 -78.694382 14,325 195 356 1472
2022-05-28 15:59:47 GMT 35.559219 -78.693123 14,225 195 356 1600
2022-05-28 15:59:44 GMT 35.566589 -78.690781 14,175 195 356 1664
2022-05-28 15:59:41 GMT 35.570892 -78.689400 14,100 195 355 1728
2022-05-28 15:59:38 GMT 35.574707 -78.688171 14,075 195 355 1792
2022-05-28 15:59:35 GMT 35.579502 -78.686592 13,925 195 355 1920
2022-05-28 15:59:32 GMT 35.583321 -78.685371 13,850 195 355 1920
2022-05-28 15:59:29 GMT 35.589249 -78.683456 13,750 195 355 1920
2022-05-28 15:59:23 GMT 35.600220 -78.679932 13,550 195 355 1792
2022-05-28 15:59:19 GMT 35.606922 -78.677773 13,425 195 354 1792
2022-05-28 15:59:15 GMT 35.612503 -78.676018 13,325 195 354 1856
2022-05-28 15:59:11 GMT 35.617069 -78.674500 13,250 195 354 1920
2022-05-28 15:59:08 GMT 35.622620 -78.672691 13,125 195 354 1920
2022-05-28 15:59:03 GMT 35.631866 -78.669724 12,925 195 354 1728
2022-05-28 15:59:00 GMT 35.635178 -78.668655 12,900 195 353 1600
2022-05-28 15:58:57 GMT 35.641342 -78.666634 12,800 195 353 1536
2022-05-28 15:58:53 GMT 35.645142 -78.665375 12,750 195 352 1408
2022-05-28 15:58:50 GMT 35.655708 -78.661934 12,625 195 350 1472
2022-05-28 15:58:47 GMT 35.655708 -78.661934 12,550 195 349 1600
2022-05-28 15:58:44 GMT 35.661343 -78.660126 12,500 195 349 1728
2022-05-28 15:58:39 GMT 35.668396 -78.657875 12,350 195 348 1920
2022-05-28 15:58:36 GMT 35.674622 -78.655869 12,250 195 348 1920
2022-05-28 15:58:31 GMT 35.681686 -78.653580 12,150 195 347 1088
2022-05-28 15:58:27 GMT 35.688354 -78.651466 12,125 195 343 128
2022-05-28 15:58:22 GMT 35.693893 -78.649635 12,125 195 340 64
2022-05-28 15:58:19 GMT 35.700256 -78.647575 12,125 195 334 64
2022-05-28 15:58:15 GMT 35.706406 -78.645569 12,100 195 326 128
2022-05-28 15:58:11 GMT 35.711384 -78.643936 12,100 195 326 128
2022-05-28 15:58:08 GMT 35.716187 -78.642365 12,100 196 319 192
2022-05-28 15:58:04 GMT 35.721207 -78.640724 12,075 195 317 192
2022-05-28 15:58:00 GMT 35.727310 -78.638702 12,075 196 312 256
2022-05-28 15:57:56 GMT 35.735733 -78.635925 12,025 196 304 448
2022-05-28 15:57:50 GMT 35.740620 -78.634354 12,000 196 302 576
2022-05-28 15:57:47 GMT 35.744797 -78.632927 11,975 196 296 896
2022-05-28 15:57:43 GMT 35.749786 -78.631271 11,875 196 293 1600
2022-05-28 15:57:40 GMT 35.753723 -78.629951 11,800 196 292 1664
2022-05-28 15:57:37 GMT 35.757751 -78.628563 11,700 195 289 2112
2022-05-28 15:57:34 GMT 35.762054 -78.627151 11,525 195 289 2368
2022-05-28 15:57:31 GMT 35.766724 -78.625664 11,475 195 289 2560
2022-05-28 15:57:27 GMT 35.771393 -78.624168 11,325 195 289 2624
2022-05-28 15:57:23 GMT 35.777069 -78.622337 11,100 195 289 2560
2022-05-28 15:57:19 GMT 35.780842 -78.621147 11,025 195 289 2432
2022-05-28 15:57:16 GMT 35.785126 -78.619820 10,900 195 288 2368
2022-05-28 15:57:13 GMT 35.789639 -78.618401 10,750 195 287 2432
2022-05-28 15:57:10 GMT 35.793503 -78.617172 10,525 195 286 2496
2022-05-28 15:57:06 GMT 35.799316 -78.615303 10,450 195 286 2624
2022-05-28 15:57:02 GMT 35.804585 -78.613663 10,275 195 285 2880
2022-05-28 15:56:58 GMT 35.807655 -78.612732 10,150 195 286 3072
2022-05-28 15:56:55 GMT 35.812408 -78.611183 9,975 195 286 3264
2022-05-28 15:56:52 GMT 35.820782 -78.608521 9,750 195 288 3328
2022-05-28 15:56:49 GMT 35.820782 -78.608521 9,625 195 288 3392
2022-05-28 15:56:45 GMT 35.824646 -78.607292 9,375 194 290 3200
2022-05-28 15:56:42 GMT 35.829758 -78.605743 9,250 195 290 3136
2022-05-28 15:56:38 GMT 35.838135 -78.603111 9,075 195 292 2752
2022-05-28 15:56:35 GMT 35.838135 -78.603111 8,975 195 291 2432
2022-05-28 15:56:31 GMT 35.843220 -78.601509 8,825 194 291 2048
2022-05-28 15:56:28 GMT 35.848202 -78.600044 8,700 192 290 1920
2022-05-28 15:56:25 GMT 35.851414 -78.599289 8,575 189 288 1984
2022-05-28 15:56:22 GMT 35.856537 -78.598312 8,500 188 288 2112
2022-05-28 15:56:19 GMT 35.859467 -78.597855 8,425 186 288 2368
2022-05-28 15:56:15 GMT 35.865051 -78.597389 8,250 182 288 2624
2022-05-28 15:56:10 GMT 35.871059 -78.597305 8,050 177 288 2560
2022-05-28 15:56:06 GMT 35.875576 -78.597595 7,925 174 288 2368
2022-05-28 15:56:02 GMT 35.881676 -78.598526 7,675 168 287 2304
2022-05-28 15:55:59 GMT 35.886654 -78.599640 7,600 166 287 2368
2022-05-28 15:55:56 GMT 35.889542 -78.600517 7,350 160 286 2560
2022-05-28 15:55:52 GMT 35.902016 -78.605835 7,200 156 284 2816
2022-05-28 15:55:47 GMT 35.902016 -78.605835 7,100 155 284 2944
2022-05-28 15:55:43 GMT 35.905975 -78.608093 6,925 152 284 3264
2022-05-28 15:55:38 GMT 35.911839 -78.612144 6,625 146 287 3584
2022-05-28 15:55:34 GMT 35.921009 -78.620674 6,350 139 289 2944
2022-05-28 15:55:30 GMT 35.921009 -78.620674 6,175 132 291 2880
2022-05-28 15:55:27 GMT 35.922455 -78.622398 6,075 129 291 2880
2022-05-28 15:55:24 GMT 35.928452 -78.631386 5,800 127 290 2752
2022-05-28 15:55:18 GMT 35.930603 -78.634811 5,650 127 289 2176
2022-05-28 15:55:15 GMT 35.933441 -78.639374 5,575 127 287 1664
2022-05-28 15:55:12 GMT 35.936005 -78.643341 5,500 127 285 1280
2022-05-28 15:55:09 GMT 35.938839 -78.647850 5,475 127 281 768
2022-05-28 15:55:06 GMT 35.940353 -78.650208 5,425 127 273 640
2022-05-28 15:55:03 GMT 35.943356 -78.655037 5,400 127 270 704
2022-05-28 15:54:58 GMT 35.946892 -78.660881 5,325 125 261 896
2022-05-28 15:54:55 GMT 35.948090 -78.662910 5,300 124 257 1024
2022-05-28 15:54:52 GMT 35.950432 -78.667191 5,250 120 251 1152
2022-05-28 15:54:48 GMT 35.953262 -78.673553 5,125 111 243 1472
2022-05-28 15:54:45 GMT 35.954247 -78.676781 5,075 106 240 1664
2022-05-28 15:54:41 GMT 35.955318 -78.682037 4,950 93 233 2176
2022-05-28 15:54:36 GMT 35.955692 -78.688934 4,750 84 228 2496
2022-05-28 15:54:32 GMT 35.955273 -78.693840 4,600 77 225 2624
2022-05-28 15:54:27 GMT 35.953629 -78.700623 4,350 63 220 2688
2022-05-28 15:54:24 GMT 35.952946 -78.702255 4,225 58 218 2560
2022-05-28 15:54:21 GMT 35.947723 -78.710861 4,100 46 212 2944
2022-05-28 15:54:16 GMT 35.947723 -78.710861 3,875 46 212 2944
2022-05-28 15:54:12 GMT 35.944519 -78.714935 3,675 45 212 2944
2022-05-28 15:54:08 GMT 35.942825 -78.717094 3,550 45 211 3136
2022-05-28 15:54:03 GMT 35.938980 -78.721962 3,250 45 212 2944
2022-05-28 15:53:59 GMT 35.935776 -78.725906 3,050 44 211 2688
2022-05-28 15:53:55 GMT 35.933395 -78.728767 2,900 44 211 2432
2022-05-28 15:53:51 GMT 35.928459 -78.734802 2,700 45 209 1984
2022-05-28 15:53:48 GMT 35.928459 -78.734802 2,675 45 207 1856
2022-05-28 15:53:43 GMT 35.924652 -78.739586 2,525 45 202 1280
2022-05-28 15:53:38 GMT 35.921448 -78.743652 2,425 45 194 1216
2022-05-28 15:53:35 GMT 35.919571 -78.745995 2,375 44 188 1152
2022-05-28 15:53:32 GMT 35.918125 -78.747719 2,325 45 183 1344
2022-05-28 15:53:27 GMT 35.915085 -78.751488 2,225 45 178 1280
2022-05-28 15:53:24 GMT 35.913162 -78.753891 2,150 45 173 1472
2022-05-28 15:53:21 GMT 35.911980 -78.755379 2,100 45 171 1792
2022-05-28 15:53:16 GMT 35.909279 -78.758652 1,925 44 168 2496
2022-05-28 15:53:13 GMT 35.907440 -78.760872 1,775 44 168 2688
2022-05-28 15:53:09 GMT 35.904716 -78.764145 1,575 45 167 2624
2022-05-28 15:53:06 GMT 35.903599 -78.765488 1,475 45 167 2624
2022-05-28 15:53:01 GMT 35.900711 -78.769112 1,250 44 168 2624
2022-05-28 15:52:55 GMT 35.897827 -78.772598 1,050 45 166 2240
2022-05-28 15:52:51 GMT 35.895081 -78.776062 875 46 166 2304
2022-05-28 15:52:45 GMT 35.892197 -78.779869 675 46 167 2176
2022-05-28 15:52:04 GMT 35.875423 -78.800781 0 42 42
2022-05-28 15:51:35 GMT 35.874691 -78.801720 0 33 6
2022-05-28 15:51:32 GMT 35.874611 -78.801788 0 5 6
2022-05-28 15:51:21 GMT 35.874390 -78.801720 0 315 7
2022-05-28 15:51:12 GMT 35.874073 -78.801323 0 303 13
2022-05-28 15:50:59 GMT 35.874027 -78.800621 0 233 10
2022-05-28 15:50:49 GMT 35.874374 -78.800156 0 225 15
2022-05-28 15:50:34 GMT 35.875156 -78.799202 0 225 14
2022-05-28 15:50:27 GMT 35.875546 -78.798622 0 261 12
2022-05-28 15:50:08 GMT 35.875488 -78.797768 0 227 10
2022-05-28 15:46:01 GMT 35.875969 -78.797165 0 222 0
2022-05-28 15:45:15 GMT 35.876076 -78.797058 0 202 0
2022-05-28 15:44:43 GMT 35.876106 -78.797035 0 202 0
2022-05-28 15:44:33 GMT 35.876060 -78.797066 0 208 2
2022-05-28 15:44:25 GMT 35.876030 -78.797073 0 199 0
2022-05-28 15:43:51 GMT 35.875809 -78.796944 0 143 2
2022-05-28 15:43:39 GMT 35.875751 -78.796852 0 135 2
2022-05-28 15:43:34 GMT 35.875717 -78.796806 0 132 2
2022-05-28 15:43:20 GMT 35.875648 -78.796707 0 135 2
2022-05-28 15:43:11 GMT 35.875603 -78.796646 0 135 0
2022-05-28 15:42:31 GMT 35.875568 -78.796608 0 137 0
2022-05-28 15:42:06 GMT 35.875565 -78.796600 0 137 0
2022-05-28 15:41:57 GMT 35.875557 -78.796608 0 137 0
2022-05-28 15:41:36 GMT 35.875565 -78.796600 0 137 0
We lost coverage of the aircraft here for a total of 115 minutes
2022-05-28 13:47:02 GMT 35.897129 -78.773842 575 227 149 -704
2022-05-28 13:46:57 GMT 35.900948 -78.768936 675 226 149 -960
2022-05-28 13:46:51 GMT 35.902855 -78.766479 725 225 148 -1088
2022-05-28 13:46:43 GMT 35.906628 -78.761978 850 225 151 -768
2022-05-28 13:46:39 GMT 35.908115 -78.760170 875 225 152 -448
2022-05-28 13:46:36 GMT 35.910538 -78.757187 900 226 154 -576
2022-05-28 13:46:32 GMT 35.911880 -78.755440 1,450 224 172 -1152
2022-05-28 13:46:29 GMT 35.913162 -78.753777 975 227 156 -832
2022-05-28 13:46:23 GMT 35.917236 -78.748451 1,075 227 154 -896
2022-05-28 13:46:20 GMT 35.918449 -78.746902 1,125 226 153 -832
2022-05-28 13:46:15 GMT 35.920624 -78.744225 1,175 225 156 -512
2022-05-28 13:46:12 GMT 35.922222 -78.742226 1,200 226 159 -512
2022-05-28 13:46:08 GMT 35.923737 -78.740334 1,250 227 164 -576
2022-05-28 13:46:04 GMT 35.926552 -78.736557 1,275 228 166 -320
2022-05-28 13:45:58 GMT 35.929413 -78.732719 1,300 226 171 -512
2022-05-28 13:45:53 GMT 35.931995 -78.729370 1,375 224 172 -1152
2022-05-28 13:45:49 GMT 35.934696 -78.726273 1,450 223 176 -1408
2022-05-28 13:45:40 GMT 35.940189 -78.719963 1,725 223 174 -1344
2022-05-28 13:45:37 GMT 35.941589 -78.718353 1,775 224 174 -1280
2022-05-28 13:45:34 GMT 35.942963 -78.716759 1,825 223 173 -1216
2022-05-28 13:45:30 GMT 35.945496 -78.713882 1,900 224 174 -1152
2022-05-28 13:45:23 GMT 35.951454 -78.706581 2,050 226 181 -896
2022-05-28 13:45:20 GMT 35.951454 -78.706581 2,075 226 183 -832
2022-05-28 13:45:15 GMT 35.954315 -78.703133 2,150 224 186 -1216
2022-05-28 13:45:10 GMT 35.958298 -78.698563 2,300 235 194 -1088
2022-05-28 13:45:04 GMT 35.961044 -78.695007 2,400 234 193 -1024
2022-05-28 13:45:01 GMT 35.962955 -78.692085 2,450 234 193 -1024
2022-05-28 13:44:56 GMT 35.965469 -78.687469 2,675 241 198 -1216
2022-05-28 13:44:50 GMT 35.969376 -78.677048 2,725 261 209 -576
2022-05-28 13:44:46 GMT 35.969376 -78.677048 2,750 257 206 -704
2022-05-28 13:44:38 GMT 35.971241 -78.667015 2,850 266 215 -960
2022-05-28 13:44:34 GMT 35.972172 -78.655853 2,950 266 215 -960
2022-05-28 13:44:28 GMT 35.972443 -78.651176 3,000 266 220 -896
2022-05-28 13:44:24 GMT 35.972443 -78.651176 3,000 266 225 64
2022-05-28 13:44:18 GMT 35.973007 -78.641830 3,000 266 225 0
2022-05-28 13:44:15 GMT 35.973801 -78.629440 3,000 266 225 64
2022-05-28 13:44:08 GMT 35.973801 -78.629440 3,000 266 232 0
2022-05-28 13:44:05 GMT 35.974827 -78.613724 3,000 266 239 0
2022-05-28 13:43:57 GMT 35.974827 -78.613724 3,000 266 247 0
2022-05-28 13:43:54 GMT 35.974964 -78.611504 3,000 266 249 64
2022-05-28 13:43:47 GMT 35.975662 -78.600342 3,000 266 252 0
2022-05-28 13:43:43 GMT 35.976013 -78.594421 3,000 266 253 64
2022-05-28 13:43:36 GMT 35.976929 -78.579994 3,025 266 254 -64
2022-05-28 13:43:32 GMT 35.976929 -78.579994 3,025 266 254 0
2022-05-28 13:43:28 GMT 35.977570 -78.569870 3,025 266 253 0
2022-05-28 13:43:22 GMT 35.977852 -78.565689 3,025 266 252 0
2022-05-28 13:43:16 GMT 35.978485 -78.556084 3,025 266 249 0
2022-05-28 13:43:13 GMT 35.978760 -78.551270 3,025 266 247 0
2022-05-28 13:43:05 GMT 35.979481 -78.539917 3,025 266 243 -64
2022-05-28 13:43:00 GMT 35.979813 -78.533997 3,025 266 242 -64
2022-05-28 13:42:53 GMT 35.980408 -78.524834 3,050 266 251 -384
2022-05-28 13:42:49 GMT 35.980782 -78.519577 3,050 266 252 -448
2022-05-28 13:42:46 GMT 35.981201 -78.512688 3,100 266 256 -832
2022-05-28 13:42:42 GMT 35.981529 -78.506844 3,175 267 258 -1088
2022-05-28 13:42:34 GMT 35.982056 -78.496056 3,450 268 258 -2048
2022-05-28 13:42:30 GMT 35.982285 -78.490791 3,500 268 255 -2048
2022-05-28 13:42:23 GMT 35.982697 -78.476944 3,775 268 250 -2048
2022-05-28 13:42:14 GMT 35.982925 -78.468559 4,000 269 249 -2112
2022-05-28 13:42:11 GMT 35.983017 -78.462898 4,150 269 248 -2048
2022-05-28 13:42:02 GMT 35.983246 -78.449478 4,475 270 248 -2112
2022-05-28 13:41:59 GMT 35.983250 -78.447350 4,525 270 248 -2112
2022-05-28 13:41:53 GMT 35.983292 -78.437347 4,750 270 248 -2048
2022-05-28 13:41:50 GMT 35.983295 -78.433792 4,850 270 248 -2048
2022-05-28 13:41:43 GMT 35.983337 -78.425217 5,050 270 248 -2048
2022-05-28 13:41:40 GMT 35.983292 -78.418983 5,200 271 248 -2048
2022-05-28 13:41:32 GMT 35.983204 -78.407265 5,525 271 248 -2048
2022-05-28 13:41:29 GMT 35.983158 -78.404457 5,525 271 248 -2048
2022-05-28 13:41:24 GMT 35.983063 -78.396805 5,700 271 248 -2048
2022-05-28 13:41:19 GMT 35.982971 -78.390259 5,875 271 248 -2048
2022-05-28 13:41:12 GMT 35.982880 -78.381104 6,075 271 248 -1984
2022-05-28 13:41:09 GMT 35.982788 -78.376007 6,200 271 249 -1984
2022-05-28 13:41:02 GMT 35.982697 -78.367195 6,400 271 250 -1920
2022-05-28 13:40:58 GMT 35.982643 -78.360222 6,550 271 251 -2048
2022-05-28 13:40:52 GMT 35.982597 -78.352158 6,725 270 253 -2048
2022-05-28 13:40:48 GMT 35.982605 -78.345619 6,900 270 254 -2176
2022-05-28 13:40:43 GMT 35.982693 -78.337662 7,100 270 256 -2304
2022-05-28 13:40:40 GMT 35.982693 -78.332985 7,250 270 257 -2624
2022-05-28 13:40:37 GMT 35.982742 -78.330803 7,250 270 257 -2624
2022-05-28 13:40:32 GMT 35.982788 -78.322617 7,550 270 255 -3008
2022-05-28 13:40:27 GMT 35.982880 -78.315063 7,825 270 252 -2944
2022-05-28 13:40:22 GMT 35.982925 -78.307861 8,050 270 250 -2944
2022-05-28 13:40:19 GMT 35.982971 -78.302895 8,200 270 249 -3072
2022-05-28 13:40:16 GMT 35.983017 -78.300476 8,300 270 249 -3072
2022-05-28 13:40:12 GMT 35.983158 -78.293777 8,700 256 251 -3072
2022-05-28 13:40:06 GMT 35.983902 -78.284714 9,125 256 252 -3136
2022-05-28 13:40:02 GMT 35.984940 -78.279015 9,075 256 251 -3136
2022-05-28 13:39:56 GMT 35.986450 -78.271812 9,625 256 252 -3136
2022-05-28 13:39:50 GMT 35.988098 -78.263680 9,625 256 253 -3136
2022-05-28 13:39:46 GMT 35.989426 -78.257278 9,850 256 253 -3136
2022-05-28 13:39:40 GMT 35.991074 -78.249146 10,150 256 254 -3136
2022-05-28 13:39:35 GMT 35.992420 -78.242523 10,525 256 254 -3136
2022-05-28 13:39:29 GMT 35.994324 -78.233414 10,725 256 254 -3200
2022-05-28 13:39:25 GMT 35.995682 -78.226746 10,975 256 255 -3200
2022-05-28 13:39:21 GMT 35.997265 -78.219147 11,225 256 255 -3200
2022-05-28 13:39:14 GMT 35.998535 -78.212753 11,475 256 255 -3072
2022-05-28 13:39:09 GMT 36.000229 -78.204575 11,750 257 256 -3136
2022-05-28 13:39:05 GMT 36.001099 -78.200050 12,075 257 256 -3072
2022-05-28 13:39:02 GMT 36.002056 -78.195190 12,075 257 256 -3072
2022-05-28 13:38:58 GMT 36.003387 -78.188667 12,300 257 256 -3008
2022-05-28 13:38:53 GMT 36.004623 -78.182426 12,450 257 257 -3008
2022-05-28 13:38:48 GMT 36.006294 -78.174271 12,775 256 257 -2496
2022-05-28 13:38:44 GMT 36.007179 -78.170006 12,875 256 259 -1600
2022-05-28 13:38:40 GMT 36.008667 -78.162872 13,000 256 262 -704
2022-05-28 13:38:37 GMT 36.009521 -78.158630 13,000 256 264 -384
2022-05-28 13:38:32 GMT 36.011089 -78.151184 13,050 256 269 -576
2022-05-28 13:38:29 GMT 36.011742 -78.148148 13,075 256 272 -832
2022-05-28 13:38:26 GMT 36.012680 -78.143517 13,125 256 274 -1088
2022-05-28 13:38:22 GMT 36.014069 -78.136986 13,200 256 276 -1152
2022-05-28 13:38:19 GMT 36.014969 -78.132820 13,250 256 279 -1408
2022-05-28 13:38:16 GMT 36.016163 -78.127113 13,350 256 281 -1920
2022-05-28 13:38:12 GMT 36.017624 -78.120064 13,550 256 282 -3008
2022-05-28 13:38:06 GMT 36.019135 -78.112564 13,800 256 284 -3136
2022-05-28 13:38:02 GMT 36.020233 -78.107185 13,975 257 285 -3136
2022-05-28 13:37:59 GMT 36.021469 -78.100891 14,175 257 285 -3136
2022-05-28 13:37:55 GMT 36.022842 -78.093910 14,400 257 286 -3136
2022-05-28 13:37:52 GMT 36.023426 -78.090881 14,500 257 286 -3136
2022-05-28 13:37:46 GMT 36.025543 -78.080238 14,825 257 288 -3136
2022-05-28 13:37:42 GMT 36.026779 -78.074165 15,025 257 289 -3136
2022-05-28 13:37:38 GMT 36.027943 -78.068260 15,200 257 290 -3072
2022-05-28 13:37:32 GMT 36.030037 -78.057625 15,525 257 290 -3072
2022-05-28 13:37:28 GMT 36.031246 -78.051491 15,700 257 291 -3072
2022-05-28 13:37:25 GMT 36.031898 -78.048279 15,800 257 292 -3136
2022-05-28 13:37:21 GMT 36.033386 -78.040855 16,175 257 293 -3136
2022-05-28 13:37:18 GMT 36.034599 -78.035011 16,225 257 293 -3136
2022-05-28 13:37:13 GMT 36.036274 -78.026543 16,500 257 295 -3136
2022-05-28 13:37:09 GMT 36.037624 -78.019936 16,700 257 297 -3136
2022-05-28 13:37:05 GMT 36.038742 -78.014381 16,875 257 298 -3136
2022-05-28 13:36:59 GMT 36.042278 -77.996796 17,250 256 301 -3072
2022-05-28 13:36:55 GMT 36.042278 -77.996796 17,400 256 302 -3136
2022-05-28 13:36:50 GMT 36.044048 -77.988434 17,650 256 304 -3072
2022-05-28 13:36:47 GMT 36.045135 -77.983192 17,800 256 305 -3136
2022-05-28 13:36:40 GMT 36.048611 -77.966461 18,150 256 307 -3072
2022-05-28 13:36:37 GMT 36.048611 -77.966461 18,275 256 309 -3072
2022-05-28 13:36:33 GMT 36.049667 -77.961502 18,425 256 310 -3072
2022-05-28 13:36:29 GMT 36.051449 -77.952728 18,675 256 312 -3072
2022-05-28 13:36:26 GMT 36.052193 -77.949226 18,800 256 313 -3072
2022-05-28 13:36:20 GMT 36.054428 -77.938126 19,100 257 316 -3136
2022-05-28 13:36:16 GMT 36.055710 -77.931633 19,325 256 317 -3136
2022-05-28 13:36:10 GMT 36.058228 -77.919334 19,625 256 319 -3136
2022-05-28 13:36:06 GMT 36.059643 -77.912407 19,850 256 319 -3200
2022-05-28 13:36:03 GMT 36.060432 -77.908554 19,950 256 320 -3136
2022-05-28 13:35:58 GMT 36.062576 -77.898270 20,250 256 320 -3136
2022-05-28 13:35:55 GMT 36.063274 -77.894707 20,575 256 320 -3200
2022-05-28 13:35:49 GMT 36.065880 -77.881966 20,725 256 319 -3200
2022-05-28 13:35:45 GMT 36.067978 -77.871841 20,925 256 319 -3200
2022-05-28 13:35:42 GMT 36.067978 -77.871841 21,000 256 318 -3136
2022-05-28 13:35:37 GMT 36.070312 -77.860565 21,325 256 317 -3200
2022-05-28 13:35:34 GMT 36.071045 -77.857079 21,450 256 317 -3200
2022-05-28 13:35:31 GMT 36.072281 -77.851067 21,625 256 317 -3264
2022-05-28 13:35:28 GMT 36.073517 -77.845177 21,800 256 315 -3200
2022-05-28 13:35:23 GMT 36.074982 -77.838196 21,975 256 314 -2880
2022-05-28 13:35:20 GMT 36.076214 -77.832466 22,150 256 313 -2880
2022-05-28 13:35:16 GMT 36.078232 -77.822571 22,400 256 313 -3072
2022-05-28 13:35:13 GMT 36.078827 -77.819824 22,700 256 314 -3136
2022-05-28 13:35:08 GMT 36.080750 -77.810440 22,750 256 316 -3072
2022-05-28 13:35:05 GMT 36.082359 -77.802544 24,525 256 317 -3072
2022-05-28 13:35:02 GMT 36.082359 -77.802544 23,075 256 317 -3072
2022-05-28 13:34:59 GMT 36.083908 -77.794991 23,200 256 318 -3072
2022-05-28 13:34:56 GMT 36.084969 -77.789864 23,500 256 321 -3008
2022-05-28 13:34:52 GMT 36.088737 -77.771278 23,725 256 323 -3072
2022-05-28 13:34:45 GMT 36.088737 -77.771278 23,850 256 325 -3008
2022-05-28 13:34:40 GMT 36.090508 -77.762634 24,225 256 328 -3008
2022-05-28 13:34:34 GMT 36.092976 -77.750595 24,400 256 331 -3008
2022-05-28 13:34:31 GMT 36.094208 -77.744576 24,575 256 333 -2944
2022-05-28 13:34:26 GMT 36.095764 -77.737144 24,775 256 336 -3200
2022-05-28 13:34:22 GMT 36.097321 -77.729706 25,000 256 338 -3136
2022-05-28 13:34:18 GMT 36.098747 -77.722778 25,125 256 339 -3072
2022-05-28 13:34:11 GMT 36.102036 -77.706818 25,600 256 341 -3008
2022-05-28 13:34:05 GMT 36.103912 -77.697716 25,825 256 341 -3072
2022-05-28 13:34:02 GMT 36.105080 -77.692276 26,025 256 343 -3072
2022-05-28 13:33:59 GMT 36.106846 -77.683914 26,175 256 343 -3200
2022-05-28 13:33:56 GMT 36.107872 -77.679008 26,325 256 343 -3456
2022-05-28 13:33:52 GMT 36.109543 -77.671227 26,625 256 343 -3200
2022-05-28 13:33:49 GMT 36.110504 -77.666641 26,700 256 342 -3200
2022-05-28 13:33:44 GMT 36.112381 -77.657547 26,950 256 342 -3200
2022-05-28 13:33:41 GMT 36.113598 -77.651657 27,100 256 341 -3200
2022-05-28 13:33:38 GMT 36.114899 -77.645416 27,275 256 341 -3200
2022-05-28 13:33:34 GMT 36.116112 -77.639565 27,450 256 339 -3264
2022-05-28 13:33:31 GMT 36.120209 -77.619896 27,900 256 337 -3200
2022-05-28 13:33:25 GMT 36.120209 -77.619896 28,000 256 337 -3200
2022-05-28 13:33:18 GMT 36.122536 -77.608536 28,475 257 335 -2944
2022-05-28 13:33:14 GMT 36.124008 -77.601295 28,475 256 335 -2752
2022-05-28 13:33:10 GMT 36.126072 -77.591469 28,675 254 335 -2176
2022-05-28 13:33:06 GMT 36.127888 -77.584167 28,825 252 335 -2112
2022-05-28 13:33:03 GMT 36.128448 -77.582191 28,850 249 335 -2112
2022-05-28 13:32:57 GMT 36.132614 -77.570686 29,125 219 329 -1792
2022-05-28 13:32:54 GMT 36.135681 -77.564110 29,225 238 331 -2112
2022-05-28 13:32:50 GMT 36.138828 -77.558334 29,375 231 329 -2112
2022-05-28 13:32:47 GMT 36.141174 -77.554604 29,375 231 329 -2112
2022-05-28 13:32:43 GMT 36.145115 -77.549042 29,575 226 329 -2048
2022-05-28 13:32:38 GMT 36.150139 -77.543022 29,725 220 330 -1920
2022-05-28 13:32:35 GMT 36.155308 -77.537766 29,850 218 330 -1728
2022-05-28 13:32:31 GMT 36.159218 -77.534081 29,925 218 333 64
2022-05-28 13:32:27 GMT 36.163193 -77.530350 30,000 218 330 -576
2022-05-28 13:32:23 GMT 36.169327 -77.524628 30,000 218 335 0
2022-05-28 13:32:18 GMT 36.174114 -77.520119 30,000 218 334 64
2022-05-28 13:32:15 GMT 36.178436 -77.516098 30,000 218 336 64
2022-05-28 13:32:12 GMT 36.182308 -77.512520 30,000 218 336 64
2022-05-28 13:32:07 GMT 36.189606 -77.505684 30,000 218 335 -64
2022-05-28 13:32:04 GMT 36.192123 -77.503395 30,000 218 335 -64
2022-05-28 13:32:01 GMT 36.204327 -77.491890 30,000 218 335 -64
2022-05-28 13:31:55 GMT 36.204327 -77.491890 30,000 218 334 -64
2022-05-28 13:31:50 GMT 36.210114 -77.486458 30,000 218 333 64
2022-05-28 13:31:45 GMT 36.219551 -77.477570 30,000 218 334 64
2022-05-28 13:31:42 GMT 36.219551 -77.477570 30,000 218 334 0
2022-05-28 13:31:36 GMT 36.227184 -77.470383 30,000 218 334 0
2022-05-28 13:31:33 GMT 36.231766 -77.466148 30,000 218 334 0
2022-05-28 13:31:27 GMT 36.237900 -77.460365 30,000 218 333 -64
2022-05-28 13:31:23 GMT 36.242733 -77.455894 30,000 218 333 -64
2022-05-28 13:31:20 GMT 36.248016 -77.450928 30,000 218 333 -64
2022-05-28 13:31:15 GMT 36.253067 -77.446251 30,000 218 333 0
2022-05-28 13:31:11 GMT 36.257629 -77.442001 30,000 218 333 0
2022-05-28 13:31:02 GMT 36.269314 -77.431114 30,000 218 333 64
2022-05-28 13:30:54 GMT 36.279415 -77.421707 30,000 218 334 -64
2022-05-28 13:30:51 GMT 36.294964 -77.407211 30,000 217 334 0
2022-05-28 13:30:40 GMT 36.308044 -77.394997 30,000 218 333 0
2022-05-28 13:30:31 GMT 36.308044 -77.394997 30,000 218 334 0
2022-05-28 13:30:22 GMT 36.318787 -77.384949 30,000 218 334 -64
2022-05-28 13:30:19 GMT 36.320614 -77.383194 30,000 218 331 0
2022-05-28 13:30:15 GMT 36.327969 -77.376244 30,000 218 333 0
2022-05-28 13:30:12 GMT 36.331135 -77.373199 30,000 218 333 0
2022-05-28 13:30:09 GMT 36.332859 -77.371628 30,000 218 333 0
2022-05-28 13:30:00 GMT 36.345795 -77.359543 30,000 218 333 0
2022-05-28 13:29:52 GMT 36.354736 -77.351112 30,000 218 332 0
2022-05-28 13:29:49 GMT 36.358692 -77.347435 30,000 218 332 0
2022-05-28 13:29:40 GMT 36.369167 -77.337494 30,000 218 331 0
2022-05-28 13:29:38 GMT 36.372986 -77.333961 30,000 218 331 0
2022-05-28 13:29:34 GMT 36.376057 -77.331070 30,000 218 331 0
2022-05-28 13:29:29 GMT 36.384346 -77.323296 30,000 218 331 0
2022-05-28 13:29:26 GMT 36.386673 -77.321091 30,000 218 331 0
2022-05-28 13:29:20 GMT 36.398849 -77.309647 30,000 218 330 64
2022-05-28 13:29:17 GMT 36.398849 -77.309647 30,000 218 330 64
2022-05-28 13:29:13 GMT 36.403152 -77.305649 30,000 218 330 0
2022-05-28 13:29:07 GMT 36.408970 -77.300156 30,000 218 329 64
2022-05-28 13:29:04 GMT 36.413956 -77.295509 30,000 218 329 64
2022-05-28 13:29:01 GMT 36.417023 -77.292671 30,000 218 329 0
2022-05-28 13:28:58 GMT 36.423981 -77.286186 30,000 218 329 0
2022-05-28 13:28:55 GMT 36.428604 -77.281837 30,000 218 329 0
2022-05-28 13:28:52 GMT 36.428604 -77.281837 30,000 218 329 -64
2022-05-28 13:28:49 GMT 36.431129 -77.279411 30,000 218 329 0
2022-05-28 13:28:46 GMT 36.434875 -77.275887 30,000 218 329 0
2022-05-28 13:28:40 GMT 36.441925 -77.269302 30,000 218 329 64
2022-05-28 13:28:37 GMT 36.454559 -77.257462 30,000 218 327 -64
2022-05-28 13:28:31 GMT 36.454559 -77.257462 30,000 218 328 0
2022-05-28 13:28:26 GMT 36.459526 -77.252823 30,000 218 328 0
2022-05-28 13:28:20 GMT 36.472328 -77.240845 30,000 218 327 -64
2022-05-28 13:28:15 GMT 36.472328 -77.240845 30,000 218 327 -64
2022-05-28 13:28:12 GMT 36.477402 -77.236046 30,000 218 326 0
2022-05-28 13:28:08 GMT 36.480755 -77.232895 30,000 218 324 64
2022-05-28 13:28:05 GMT 36.484852 -77.229034 30,000 218 325 64
2022-05-28 13:28:02 GMT 36.487610 -77.226448 30,000 218 326 0
2022-05-28 13:27:58 GMT 36.498596 -77.216087 30,000 218 324 64
2022-05-28 13:27:53 GMT 36.498596 -77.216087 30,000 218 324 64
2022-05-28 13:27:49 GMT 36.505325 -77.209801 30,000 218 324 64
2022-05-28 13:27:46 GMT 36.507706 -77.207504 30,000 218 324 0
2022-05-28 13:27:37 GMT 36.517670 -77.198181 30,000 218 324 0
2022-05-28 13:27:33 GMT 36.522697 -77.193451 30,000 218 324 0
2022-05-28 13:27:26 GMT 36.532242 -77.184448 30,000 218 324 0
2022-05-28 13:27:23 GMT 36.534760 -77.182098 30,000 218 324 0
2022-05-28 13:27:18 GMT 36.540619 -77.176620 30,000 218 324 0
2022-05-28 13:27:15 GMT 36.544785 -77.172661 30,000 218 324 0
2022-05-28 13:27:12 GMT 36.547668 -77.169968 30,000 218 325 0
2022-05-28 13:27:07 GMT 36.555313 -77.162766 30,000 218 324 0
2022-05-28 13:27:03 GMT 36.572067 -77.146973 30,000 218 325 0
2022-05-28 13:26:53 GMT 36.572067 -77.146973 30,000 218 325 0
2022-05-28 13:26:49 GMT 36.575684 -77.143539 30,000 218 327 0
2022-05-28 13:26:45 GMT 36.580719 -77.138786 30,000 218 326 -64
2022-05-28 13:26:42 GMT 36.583729 -77.135948 30,000 218 326 -64
2022-05-28 13:26:39 GMT 36.588867 -77.131119 30,000 218 326 -64
2022-05-28 13:26:36 GMT 36.591408 -77.128700 30,000 218 327 64
2022-05-28 13:26:32 GMT 36.597179 -77.123260 30,000 218 326 0
2022-05-28 13:26:24 GMT 36.605839 -77.115143 30,000 218 326 0
2022-05-28 13:26:20 GMT 36.609936 -77.111282 30,000 218 326 0
2022-05-28 13:26:17 GMT 36.615097 -77.106400 30,000 218 326 64
2022-05-28 13:26:14 GMT 36.618595 -77.103104 30,000 218 326 64
2022-05-28 13:26:10 GMT 36.623520 -77.098450 30,000 218 327 64
2022-05-28 13:26:06 GMT 36.627300 -77.094978 30,000 218 327 0
2022-05-28 13:26:01 GMT 36.639496 -77.083511 30,000 217 327 0
2022-05-28 13:25:56 GMT 36.643734 -77.079552 30,000 217 329 0
2022-05-28 13:25:53 GMT 36.643734 -77.079552 30,000 217 329 0
2022-05-28 13:25:49 GMT 36.648239 -77.075386 30,000 217 327 0
2022-05-28 13:25:46 GMT 36.652020 -77.071838 30,000 217 328 0
2022-05-28 13:25:42 GMT 36.660416 -77.063995 30,000 217 329 0
2022-05-28 13:25:39 GMT 36.660416 -77.063995 30,000 217 329 0
2022-05-28 13:25:35 GMT 36.665379 -77.059387 30,000 217 329 0
2022-05-28 13:25:32 GMT 36.669525 -77.055473 30,000 217 330 64
2022-05-28 13:25:29 GMT 36.672592 -77.052673 30,000 209 335 0
2022-05-28 13:25:25 GMT 36.677444 -77.048096 30,000 217 330 0
2022-05-28 13:25:22 GMT 36.680744 -77.045013 30,000 218 330 0
2022-05-28 13:25:18 GMT 36.690331 -77.036133 30,000 209 335 0
2022-05-28 13:25:14 GMT 36.690331 -77.036133 30,000 217 331 0
2022-05-28 13:25:10 GMT 36.696804 -77.030289 30,000 215 332 0
2022-05-28 13:25:07 GMT 36.698807 -77.028534 30,000 212 334 0
2022-05-28 13:25:04 GMT 36.704159 -77.024094 30,000 213 333 0
2022-05-28 13:25:01 GMT 36.707047 -77.021812 30,000 212 333 0
2022-05-28 13:24:57 GMT 36.714066 -77.016624 30,000 209 335 0
2022-05-28 13:24:53 GMT 36.717636 -77.014214 30,000 209 335 0
2022-05-28 13:24:50 GMT 36.723129 -77.010674 30,000 206 337 0
2022-05-28 13:24:47 GMT 36.727203 -77.008202 30,000 204 338 0
2022-05-28 13:24:43 GMT 36.731644 -77.005753 30,000 203 338 -64
2022-05-28 13:24:40 GMT 36.736542 -77.003227 30,000 200 340 0
2022-05-28 13:24:36 GMT 36.742004 -77.000664 30,000 200 341 0
2022-05-28 13:24:32 GMT 36.747208 -76.998367 30,000 200 341 0
2022-05-28 13:24:28 GMT 36.754204 -76.995346 30,000 200 341 64
2022-05-28 13:24:25 GMT 36.757919 -76.993675 30,000 200 341 64
2022-05-28 13:24:22 GMT 36.762726 -76.991615 30,000 200 342 64
2022-05-28 13:24:19 GMT 36.766445 -76.990028 30,000 200 342 64
2022-05-28 13:24:15 GMT 36.773163 -76.987099 30,000 199 344 0
2022-05-28 13:24:12 GMT 36.779015 -76.984589 30,000 200 343 64
2022-05-28 13:24:09 GMT 36.782181 -76.983208 30,000 200 343 64
2022-05-28 13:24:06 GMT 36.788048 -76.980736 30,000 200 343 0
2022-05-28 13:24:02 GMT 36.793167 -76.978516 30,000 200 343 64
2022-05-28 13:23:59 GMT 36.797356 -76.976761 30,000 200 343 0
2022-05-28 13:23:56 GMT 36.801727 -76.974854 30,000 199 344 0
2022-05-28 13:23:52 GMT 36.809414 -76.971558 30,000 199 344 0
2022-05-28 13:23:47 GMT 36.817154 -76.968269 30,000 200 345 0
2022-05-28 13:23:42 GMT 36.823471 -76.965523 30,000 200 345 -64
2022-05-28 13:23:38 GMT 36.828453 -76.963379 30,000 200 345 -64
2022-05-28 13:23:34 GMT 36.835236 -76.960426 30,000 200 346 -64
2022-05-28 13:23:31 GMT 36.839951 -76.958412 30,000 200 346 0
2022-05-28 13:23:27 GMT 36.844791 -76.956306 30,000 200 346 0
2022-05-28 13:23:24 GMT 36.849472 -76.954247 30,000 200 347 0
2022-05-28 13:23:21 GMT 36.856750 -76.951103 30,000 200 347 0
2022-05-28 13:23:17 GMT 36.860527 -76.949432 30,000 200 347 0
2022-05-28 13:23:14 GMT 36.872398 -76.944298 30,000 200 347 0
2022-05-28 13:23:09 GMT 36.872398 -76.944298 30,000 200 348 0
2022-05-28 13:23:07 GMT 36.875885 -76.942810 30,000 200 348 0
2022-05-28 13:23:04 GMT 36.881058 -76.940590 30,000 200 348 0
2022-05-28 13:23:01 GMT 36.886086 -76.938393 30,000 200 348 0
2022-05-28 13:22:55 GMT 36.894604 -76.934685 30,000 200 349 0
2022-05-28 13:22:52 GMT 36.899368 -76.932640 30,000 200 349 0
2022-05-28 13:22:49 GMT 36.904099 -76.930626 30,000 200 349 0
2022-05-28 13:22:44 GMT 36.910805 -76.927704 30,000 200 349 0
2022-05-28 13:22:40 GMT 36.917679 -76.924751 30,000 200 349 0
2022-05-28 13:22:36 GMT 36.923931 -76.922028 30,000 200 349 0
2022-05-28 13:22:33 GMT 36.929752 -76.919525 30,000 200 349 0
2022-05-28 13:22:30 GMT 36.934032 -76.917671 30,000 200 349 0
2022-05-28 13:22:27 GMT 36.938461 -76.915749 30,000 200 349 0
2022-05-28 13:22:24 GMT 36.941948 -76.914268 30,000 200 349 0
2022-05-28 13:22:20 GMT 36.948212 -76.911545 30,000 200 350 0
2022-05-28 13:22:17 GMT 36.953259 -76.909370 30,000 200 350 64
2022-05-28 13:22:15 GMT 36.955902 -76.908211 30,000 200 350 0
2022-05-28 13:22:11 GMT 36.963226 -76.905060 30,000 200 350 0
2022-05-28 13:22:07 GMT 36.967503 -76.903221 30,000 200 350 0
2022-05-28 13:22:04 GMT 36.974258 -76.900322 30,000 200 350 0
2022-05-28 13:22:00 GMT 36.984055 -76.896057 30,000 200 350 0
2022-05-28 13:21:57 GMT 36.984055 -76.896057 30,000 200 350 0
2022-05-28 13:21:53 GMT 36.989429 -76.893730 30,000 200 350 0
2022-05-28 13:21:48 GMT 36.997513 -76.890213 30,000 200 350 0
2022-05-28 13:21:45 GMT 37.005798 -76.886589 30,000 200 351 0
2022-05-28 13:21:42 GMT 37.005798 -76.886589 30,000 200 351 0
2022-05-28 13:21:38 GMT 37.012707 -76.883636 30,000 200 351 0
2022-05-28 13:21:33 GMT 37.019302 -76.880745 30,000 200 351 64
2022-05-28 13:21:30 GMT 37.025928 -76.877907 30,000 200 351 0
2022-05-28 13:21:25 GMT 37.031616 -76.875427 30,000 200 351 0
2022-05-28 13:21:21 GMT 37.037613 -76.872772 30,000 200 351 0
2022-05-28 13:21:18 GMT 37.042500 -76.870682 30,000 200 351 0
2022-05-28 13:21:15 GMT 37.048038 -76.868233 30,000 200 351 0
2022-05-28 13:21:11 GMT 37.054047 -76.865608 30,000 200 351 0
2022-05-28 13:21:05 GMT 37.064007 -76.861244 30,000 200 351 0
2022-05-28 13:21:01 GMT 37.068943 -76.859100 30,000 200 351 0
2022-05-28 13:20:55 GMT 37.078308 -76.855034 30,000 200 350 0
2022-05-28 13:20:51 GMT 37.084908 -76.852173 30,000 200 350 0
2022-05-28 13:20:47 GMT 37.090401 -76.849724 30,000 200 350 0
2022-05-28 13:20:44 GMT 37.096546 -76.847099 30,000 200 349 0
2022-05-28 13:20:40 GMT 37.100693 -76.845276 30,000 200 349 64
2022-05-28 13:20:37 GMT 37.106930 -76.842499 30,000 200 349 64
2022-05-28 13:20:30 GMT 37.116753 -76.838203 30,000 200 349 64
2022-05-28 13:20:25 GMT 37.123779 -76.835152 30,000 200 349 0
2022-05-28 13:20:20 GMT 37.132187 -76.831482 30,000 200 349 0
2022-05-28 13:20:14 GMT 37.143005 -76.826797 30,000 200 348 0
2022-05-28 13:20:10 GMT 37.148499 -76.824471 30,000 200 348 0
2022-05-28 13:20:06 GMT 37.154709 -76.821724 30,000 200 347 0
2022-05-28 13:20:02 GMT 37.159718 -76.819572 30,000 200 347 0
2022-05-28 13:19:59 GMT 37.163544 -76.817863 30,000 200 347 0
2022-05-28 13:19:53 GMT 37.174568 -76.813065 30,000 200 345 0
2022-05-28 13:19:49 GMT 37.179459 -76.810974 30,000 200 345 0
2022-05-28 13:19:44 GMT 37.186249 -76.807991 30,000 200 345 0
2022-05-28 13:19:41 GMT 37.195145 -76.804169 30,000 200 344 -64
2022-05-28 13:19:39 GMT 37.195145 -76.804169 30,000 200 344 -64
2022-05-28 13:19:34 GMT 37.202820 -76.800865 30,000 200 342 0
2022-05-28 13:19:31 GMT 37.210136 -76.797661 30,025 200 342 -64
2022-05-28 13:19:28 GMT 37.210136 -76.797661 30,025 200 341 -64
2022-05-28 13:19:24 GMT 37.216419 -76.794914 30,025 200 339 0
2022-05-28 13:19:21 GMT 37.220886 -76.792938 30,025 200 338 64
2022-05-28 13:19:17 GMT 37.226074 -76.790695 30,025 200 339 0
2022-05-28 13:19:13 GMT 37.234680 -76.786957 30,025 200 338 64
2022-05-28 13:19:10 GMT 37.238800 -76.785088 30,000 200 336 192
2022-05-28 13:19:07 GMT 37.242004 -76.783684 29,975 200 335 320
2022-05-28 13:19:03 GMT 37.246994 -76.781464 29,975 200 335 320
2022-05-28 13:18:59 GMT 37.252579 -76.779060 29,950 200 335 384
2022-05-28 13:18:57 GMT 37.255943 -76.777596 29,925 200 333 256
2022-05-28 13:18:53 GMT 37.263252 -76.774368 29,925 200 331 64
2022-05-28 13:18:50 GMT 37.266907 -76.772812 29,900 200 330 64
2022-05-28 13:18:46 GMT 37.271530 -76.770767 29,900 200 332 64
2022-05-28 13:18:43 GMT 37.276611 -76.768578 29,900 200 330 64
2022-05-28 13:18:40 GMT 37.286316 -76.764397 29,900 200 329 64
2022-05-28 13:18:36 GMT 37.286316 -76.764397 29,900 200 328 64
2022-05-28 13:18:32 GMT 37.292206 -76.761833 29,900 200 328 64
2022-05-28 13:18:26 GMT 37.303055 -76.757118 29,875 200 324 128
2022-05-28 13:18:23 GMT 37.312408 -76.752998 29,875 200 323 128
2022-05-28 13:18:18 GMT 37.312408 -76.752998 29,850 200 322 192
2022-05-28 13:18:15 GMT 37.316090 -76.751442 29,650 200 317 576
2022-05-28 13:18:12 GMT 37.321014 -76.749260 29,850 200 321 448
2022-05-28 13:18:05 GMT 37.330425 -76.745171 29,775 200 319 384
2022-05-28 13:18:02 GMT 37.335453 -76.743027 29,775 200 318 512
2022-05-28 13:17:59 GMT 37.339642 -76.741173 29,725 200 318 512
2022-05-28 13:17:54 GMT 37.346905 -76.738068 29,700 200 318 512
2022-05-28 13:17:51 GMT 37.354679 -76.734726 29,675 200 317 576
2022-05-28 13:17:48 GMT 37.354679 -76.734726 29,650 200 317 576
2022-05-28 13:17:45 GMT 37.359009 -76.732841 29,600 200 316 576
2022-05-28 13:17:41 GMT 37.364128 -76.730606 29,575 200 316 640
2022-05-28 13:17:38 GMT 37.373108 -76.726707 29,550 200 315 640
2022-05-28 13:17:35 GMT 37.378098 -76.724541 29,500 200 315 704
2022-05-28 13:17:31 GMT 37.378098 -76.724541 29,450 200 315 704
2022-05-28 13:17:28 GMT 37.383362 -76.722260 29,425 200 315 640
2022-05-28 13:17:24 GMT 37.388855 -76.719864 29,400 200 314 640
2022-05-28 13:17:20 GMT 37.392471 -76.718292 29,075 200 313 704
2022-05-28 13:17:14 GMT 37.401535 -76.714371 29,275 200 314 704
2022-05-28 13:17:11 GMT 37.406910 -76.712036 29,275 200 314 704
2022-05-28 13:17:07 GMT 37.412636 -76.709526 29,200 200 313 704
2022-05-28 13:17:02 GMT 37.418129 -76.707077 29,150 200 313 768
2022-05-28 13:16:59 GMT 37.421669 -76.705528 29,150 200 313 768
2022-05-28 13:16:55 GMT 37.427856 -76.702805 29,100 200 313 1152
2022-05-28 13:16:53 GMT 37.432095 -76.700989 29,025 200 313 1152
2022-05-28 13:16:50 GMT 37.434841 -76.699799 28,975 200 313 1152
2022-05-28 13:16:46 GMT 37.441128 -76.696991 28,825 200 314 1280
2022-05-28 13:16:43 GMT 37.444565 -76.695442 28,800 200 314 1280
2022-05-28 13:16:39 GMT 37.451275 -76.692513 28,725 200 316 1216
2022-05-28 13:16:34 GMT 37.455978 -76.690483 28,675 200 316 1280
2022-05-28 13:16:32 GMT 37.459049 -76.689171 28,600 200 317 1344
2022-05-28 13:16:29 GMT 37.463333 -76.687256 28,550 200 317 1408
2022-05-28 13:16:24 GMT 37.468872 -76.684860 28,475 200 318 1472
2022-05-28 13:16:22 GMT 37.473202 -76.682961 28,350 200 320 1408
2022-05-28 13:16:18 GMT 37.478073 -76.680832 28,100 199 320 192
2022-05-28 13:16:12 GMT 37.492996 -76.674347 28,175 200 321 832
2022-05-28 13:16:08 GMT 37.492996 -76.674347 28,100 199 320 192
2022-05-28 13:16:02 GMT 37.506626 -76.668449 28,100 200 319 192
2022-05-28 13:15:59 GMT 37.506626 -76.668449 28,075 199 320 192
2022-05-28 13:15:51 GMT 37.516636 -76.664093 28,050 199 317 384
2022-05-28 13:15:48 GMT 37.520824 -76.662300 28,025 199 317 384
2022-05-28 13:15:44 GMT 37.527054 -76.659615 28,000 200 315 64
2022-05-28 13:15:40 GMT 37.533142 -76.656990 28,000 200 315 64
2022-05-28 13:15:37 GMT 37.535339 -76.655991 28,000 198 317 0
2022-05-28 13:15:31 GMT 37.544998 -76.651848 28,000 199 315 0
2022-05-28 13:15:28 GMT 37.548843 -76.650208 28,000 199 315 0
2022-05-28 13:15:24 GMT 37.553131 -76.648384 28,000 199 315 0
2022-05-28 13:15:21 GMT 37.557312 -76.646584 28,000 199 317 0
2022-05-28 13:15:18 GMT 37.561615 -76.644714 28,000 199 316 0
2022-05-28 13:15:15 GMT 37.566879 -76.642494 28,000 199 317 0
2022-05-28 13:15:12 GMT 37.571522 -76.640625 28,000 196 319 0
2022-05-28 13:15:09 GMT 37.575195 -76.639313 28,000 196 319 64
2022-05-28 13:15:06 GMT 37.579926 -76.637764 28,000 193 321 64
2022-05-28 13:15:03 GMT 37.582691 -76.636925 28,000 191 324 0
2022-05-28 13:15:00 GMT 37.588120 -76.635544 28,000 190 325 -64
2022-05-28 13:14:56 GMT 37.594193 -76.634354 28,000 187 327 -64
2022-05-28 13:14:53 GMT 37.598103 -76.633759 28,000 186 327 0
2022-05-28 13:14:49 GMT 37.604759 -76.632980 28,000 184 330 64
2022-05-28 13:14:46 GMT 37.608761 -76.632744 28,000 176 338 0
2022-05-28 13:14:41 GMT 37.616116 -76.632622 28,000 177 335 64
2022-05-28 13:14:38 GMT 37.622177 -76.632851 28,000 177 336 64
2022-05-28 13:14:33 GMT 37.629044 -76.633324 28,000 176 337 0
2022-05-28 13:14:30 GMT 37.640415 -76.634117 28,000 176 337 0
2022-05-28 13:14:26 GMT 37.640415 -76.634117 28,000 176 342 0
2022-05-28 13:14:22 GMT 37.645889 -76.634430 28,000 176 338 -64
2022-05-28 13:14:18 GMT 37.652615 -76.634895 28,000 176 338 -64
2022-05-28 13:14:16 GMT 37.656509 -76.635193 28,000 176 338 0
2022-05-28 13:14:11 GMT 37.662621 -76.635612 28,000 176 340 64
2022-05-28 13:14:08 GMT 37.669693 -76.636070 28,000 176 339 64
2022-05-28 13:14:04 GMT 37.674866 -76.636444 28,000 176 340 64
2022-05-28 13:13:56 GMT 37.686226 -76.637222 28,000 176 341 0
2022-05-28 13:13:46 GMT 37.712433 -76.638954 28,000 176 342 0
2022-05-28 13:13:43 GMT 37.715744 -76.639168 28,000 177 349 0
2022-05-28 13:13:37 GMT 37.717346 -76.639282 28,000 176 343 0
2022-05-28 13:13:34 GMT 37.721146 -76.639519 28,000 176 343 64
2022-05-28 13:13:29 GMT 37.730347 -76.640099 28,000 177 344 64
2022-05-28 13:13:27 GMT 37.737850 -76.640564 28,000 177 344 64
2022-05-28 13:13:24 GMT 37.749161 -76.641327 28,000 176 345 64
2022-05-28 13:13:14 GMT 37.754288 -76.641678 28,000 176 345 64
2022-05-28 13:13:11 GMT 37.758938 -76.641998 28,000 176 346 0
2022-05-28 13:13:07 GMT 37.765644 -76.642479 28,000 176 347 64
2022-05-28 13:13:05 GMT 37.768066 -76.642609 28,000 176 347 64
2022-05-28 13:13:01 GMT 37.773514 -76.643021 28,000 177 349 0
2022-05-28 13:12:57 GMT 37.780399 -76.643494 28,000 177 348 0
2022-05-28 13:12:55 GMT 37.783813 -76.643661 28,000 177 348 64
2022-05-28 13:12:53 GMT 37.787338 -76.643898 28,000 177 349 0
2022-05-28 13:12:45 GMT 37.800091 -76.644745 28,000 177 349 0
2022-05-28 13:12:40 GMT 37.809265 -76.645355 28,000 177 346 0
2022-05-28 13:12:35 GMT 37.817223 -76.645882 28,000 177 349 0
2022-05-28 13:12:30 GMT 37.825275 -76.646416 28,000 177 349 0
2022-05-28 13:12:26 GMT 37.834026 -76.647011 28,000 177 349 64
2022-05-28 13:12:21 GMT 37.838379 -76.647285 28,000 177 348 64
2022-05-28 13:12:18 GMT 37.843384 -76.647614 28,000 177 349 64
2022-05-28 13:12:14 GMT 37.851929 -76.648163 28,000 177 347 0
2022-05-28 13:12:11 GMT 37.855953 -76.648384 28,000 177 347 0
2022-05-28 13:12:08 GMT 37.859985 -76.648689 28,000 177 347 0
2022-05-28 13:12:05 GMT 37.864941 -76.648987 28,000 177 346 0
2022-05-28 13:12:01 GMT 37.871037 -76.649399 28,000 177 346 0
2022-05-28 13:11:57 GMT 37.877609 -76.649803 28,000 176 342 64
2022-05-28 13:11:54 GMT 37.884613 -76.650269 28,000 177 345 0
2022-05-28 13:11:50 GMT 37.888138 -76.650497 28,000 177 344 0
2022-05-28 13:11:47 GMT 37.893539 -76.650795 27,950 176 342 960
2022-05-28 13:11:42 GMT 37.901505 -76.651321 28,000 177 343 0
2022-05-28 13:11:40 GMT 37.905624 -76.651550 28,000 177 342 0
2022-05-28 13:11:35 GMT 37.911942 -76.651962 28,000 176 342 64
2022-05-28 13:11:32 GMT 37.917343 -76.652313 28,000 176 341 64
2022-05-28 13:11:26 GMT 37.926292 -76.652924 28,000 177 339 128
2022-05-28 13:11:23 GMT 37.932449 -76.653305 28,000 177 338 128
2022-05-28 13:11:21 GMT 37.934006 -76.653366 28,000 177 339 64
2022-05-28 13:11:17 GMT 37.940727 -76.653824 28,000 177 338 192
2022-05-28 13:11:14 GMT 37.946228 -76.654182 27,975 177 338 192
2022-05-28 13:11:10 GMT 37.951664 -76.654480 27,975 177 338 192
2022-05-28 13:11:04 GMT 37.966328 -76.655434 27,975 177 337 64
2022-05-28 13:11:01 GMT 37.966328 -76.655434 27,950 177 336 128
2022-05-28 13:10:58 GMT 37.970703 -76.655731 27,675 177 334 576
2022-05-28 13:10:53 GMT 37.977676 -76.656166 27,900 176 334 896
2022-05-28 13:10:50 GMT 37.982437 -76.656509 27,825 176 334 1536
2022-05-28 13:10:45 GMT 37.990997 -76.657104 27,575 176 336 1984
2022-05-28 13:10:40 GMT 38.002808 -76.657921 27,500 176 338 1792
2022-05-28 13:10:38 GMT 38.002808 -76.657921 27,450 176 341 1536
2022-05-28 13:10:34 GMT 38.007061 -76.658241 27,400 176 340 1600
2022-05-28 13:10:30 GMT 38.014324 -76.658714 27,300 176 341 1472
2022-05-28 13:10:25 GMT 38.022240 -76.659195 27,075 176 342 768
2022-05-28 13:10:22 GMT 38.027115 -76.659500 27,050 176 342 896
2022-05-28 13:10:19 GMT 38.031876 -76.659790 27,075 177 343 832
2022-05-28 13:10:16 GMT 38.036808 -76.660088 27,025 176 342 768
2022-05-28 13:10:13 GMT 38.041718 -76.660439 27,000 176 342 768
2022-05-28 13:10:10 GMT 38.045048 -76.660690 26,850 176 342 896
2022-05-28 13:10:07 GMT 38.052475 -76.661140 26,900 177 342 1024
2022-05-28 13:10:02 GMT 38.058472 -76.661545 26,825 177 342 1152
2022-05-28 13:09:58 GMT 38.065578 -76.662003 26,725 177 342 1280
2022-05-28 13:09:56 GMT 38.074310 -76.662537 26,550 177 343 1344
2022-05-28 13:09:53 GMT 38.074310 -76.662537 26,625 177 343 1344
2022-05-28 13:09:49 GMT 38.079544 -76.662834 26,175 177 344 1280
2022-05-28 13:09:46 GMT 38.083832 -76.663063 26,500 177 344 1216
2022-05-28 13:09:42 GMT 38.090343 -76.663490 26,400 175 345 896
2022-05-28 13:09:39 GMT 38.101044 -76.664581 26,350 173 348 960
2022-05-28 13:09:36 GMT 38.101044 -76.664581 26,325 173 348 960
2022-05-28 13:09:32 GMT 38.108269 -76.665642 26,250 172 347 832
2022-05-28 13:09:29 GMT 38.112411 -76.666298 26,225 173 347 896
2022-05-28 13:09:25 GMT 38.122326 -76.667854 26,100 172 340 0
2022-05-28 13:09:22 GMT 38.122326 -76.667854 26,100 172 340 0
2022-05-28 13:09:19 GMT 38.127121 -76.668625 26,100 172 346 640
2022-05-28 13:09:16 GMT 38.132675 -76.669495 26,075 172 346 640
2022-05-28 13:09:11 GMT 38.139038 -76.670486 26,025 172 345 640
2022-05-28 13:09:08 GMT 38.150581 -76.672394 25,925 172 342 832
2022-05-28 13:09:05 GMT 38.150581 -76.672394 25,950 172 343 768
2022-05-28 13:08:59 GMT 38.159428 -76.673820 25,875 172 342 1024
2022-05-28 13:08:55 GMT 38.165386 -76.674782 25,800 172 342 1216
2022-05-28 13:08:48 GMT 38.182983 -76.677582 25,575 172 342 1152
2022-05-28 13:08:43 GMT 38.182983 -76.677582 25,575 172 342 1152
2022-05-28 13:08:40 GMT 38.188011 -76.678360 25,400 172 340 0
2022-05-28 13:08:37 GMT 38.195114 -76.679489 25,400 172 342 1088
2022-05-28 13:08:34 GMT 38.199829 -76.680244 25,400 172 342 1152
2022-05-28 13:08:31 GMT 38.208298 -76.681648 25,325 172 342 1088
2022-05-28 13:08:28 GMT 38.208298 -76.681648 24,925 172 341 1216
2022-05-28 13:08:24 GMT 38.213802 -76.682480 25,250 172 341 1216
2022-05-28 13:08:22 GMT 38.219479 -76.683434 25,175 172 341 1216
2022-05-28 13:08:20 GMT 38.219479 -76.683434 25,150 172 341 1216
2022-05-28 13:08:17 GMT 38.224640 -76.684219 25,100 172 341 1216
2022-05-28 13:08:13 GMT 38.231873 -76.685387 25,025 172 341 1216
2022-05-28 13:08:09 GMT 38.237503 -76.686325 24,950 172 341 1088
2022-05-28 13:08:05 GMT 38.245548 -76.687553 24,825 172 340 1024
2022-05-28 13:08:02 GMT 38.248169 -76.687958 24,825 172 340 1024
2022-05-28 13:07:57 GMT 38.256638 -76.689362 24,350 172 337 1280
2022-05-28 13:07:53 GMT 38.262589 -76.690300 24,675 172 337 1152
2022-05-28 13:07:50 GMT 38.265701 -76.690826 24,675 172 338 896
2022-05-28 13:07:48 GMT 38.276596 -76.692574 24,625 172 338 960
2022-05-28 13:07:44 GMT 38.276596 -76.692574 24,500 172 337 1024
2022-05-28 13:07:41 GMT 38.282181 -76.693451 24,500 172 337 1152
2022-05-28 13:07:36 GMT 38.288841 -76.694542 24,200 172 338 1344
2022-05-28 13:07:33 GMT 38.293625 -76.695320 24,325 172 337 1280
2022-05-28 13:07:30 GMT 38.299850 -76.696373 24,250 172 337 1344
2022-05-28 13:07:26 GMT 38.305275 -76.697289 24,175 172 338 1344
2022-05-28 13:07:23 GMT 38.309784 -76.698013 24,125 172 338 1216
2022-05-28 13:07:21 GMT 38.316605 -76.699120 23,975 172 338 1152
2022-05-28 13:07:18 GMT 38.316605 -76.699120 24,025 172 338 1280
2022-05-28 13:07:16 GMT 38.329205 -76.701225 23,950 172 335 896
2022-05-28 13:07:11 GMT 38.329205 -76.701225 23,875 172 338 1024
2022-05-28 13:07:08 GMT 38.331528 -76.701576 23,850 172 337 896
2022-05-28 13:07:05 GMT 38.337257 -76.702545 23,800 172 336 832
2022-05-28 13:07:01 GMT 38.343170 -76.703499 23,750 172 335 960
2022-05-28 13:06:58 GMT 38.352539 -76.705086 23,650 172 334 1152
2022-05-28 13:06:55 GMT 38.352539 -76.705086 23,600 172 333 1216
2022-05-28 13:06:52 GMT 38.358078 -76.706017 23,575 172 333 1344
2022-05-28 13:06:47 GMT 38.364956 -76.707199 23,475 172 335 1728
2022-05-28 13:06:43 GMT 38.372356 -76.708450 23,325 172 335 1600
2022-05-28 13:06:39 GMT 38.378830 -76.709526 23,225 172 335 1600
2022-05-28 13:06:34 GMT 38.384811 -76.710518 23,000 172 336 1728
2022-05-28 13:06:31 GMT 38.388840 -76.711220 23,075 172 335 1472
2022-05-28 13:06:29 GMT 38.392700 -76.711861 22,975 172 336 1728
2022-05-28 13:06:26 GMT 38.397308 -76.712631 22,925 171 337 1792
2022-05-28 13:06:24 GMT 38.404266 -76.713844 22,800 169 340 1088
2022-05-28 13:06:21 GMT 38.404266 -76.713844 22,800 171 339 1472
2022-05-28 13:06:18 GMT 38.409695 -76.714958 22,725 169 340 1088
2022-05-28 13:06:14 GMT 38.416817 -76.716797 22,675 166 341 768
2022-05-28 13:06:11 GMT 38.420216 -76.717834 22,650 166 340 832
2022-05-28 13:06:09 GMT 38.425102 -76.719360 22,600 166 339 832
2022-05-28 13:06:04 GMT 38.430267 -76.721008 22,550 166 339 960
2022-05-28 13:06:02 GMT 38.433472 -76.722008 22,525 165 337 1152
2022-05-28 13:05:58 GMT 38.440929 -76.724426 22,425 165 337 1344
2022-05-28 13:05:54 GMT 38.445282 -76.725830 22,350 165 336 1344
2022-05-28 13:05:52 GMT 38.453156 -76.728340 22,250 165 336 1344
2022-05-28 13:05:49 GMT 38.453156 -76.728340 22,100 165 336 1344
2022-05-28 13:05:46 GMT 38.457962 -76.729889 22,150 166 334 1472
2022-05-28 13:05:43 GMT 38.463272 -76.731567 22,125 166 334 1472
2022-05-28 13:05:38 GMT 38.471375 -76.734131 21,900 165 335 1600
2022-05-28 13:05:32 GMT 38.483871 -76.738129 21,775 165 335 1600
2022-05-28 13:05:29 GMT 38.483871 -76.738129 21,725 166 334 1600
2022-05-28 13:05:26 GMT 38.487213 -76.739143 21,475 166 334 1600
2022-05-28 13:05:23 GMT 38.495956 -76.741951 21,525 166 334 1536
2022-05-28 13:05:17 GMT 38.503143 -76.744217 21,425 166 334 1536
2022-05-28 13:05:11 GMT 38.510971 -76.746666 21,275 166 334 1600
2022-05-28 13:05:08 GMT 38.515503 -76.748100 21,225 166 334 1600
2022-05-28 13:05:05 GMT 38.519394 -76.749352 21,100 166 334 0
2022-05-28 13:05:02 GMT 38.526447 -76.751587 21,025 165 333 1600
2022-05-28 13:04:59 GMT 38.529602 -76.752579 20,825 166 333 1664
2022-05-28 13:04:56 GMT 38.533493 -76.753830 20,725 165 333 1664
2022-05-28 13:04:51 GMT 38.542191 -76.756577 20,750 166 333 1600
2022-05-28 13:04:48 GMT 38.546082 -76.757835 20,525 166 332 1280
2022-05-28 13:04:45 GMT 38.550419 -76.759216 20,600 166 332 1408
2022-05-28 13:04:41 GMT 38.555374 -76.760757 20,525 166 332 1280
2022-05-28 13:04:38 GMT 38.560287 -76.762268 20,475 166 330 1344
2022-05-28 13:04:35 GMT 38.565216 -76.763863 20,400 166 330 1280
2022-05-28 13:04:31 GMT 38.572357 -76.766129 20,250 166 329 1664
2022-05-28 13:04:28 GMT 38.576351 -76.767395 20,200 166 329 1920
2022-05-28 13:04:25 GMT 38.580643 -76.768700 20,125 165 329 2240
2022-05-28 13:04:20 GMT 38.587337 -76.770874 19,800 165 332 2816
2022-05-28 13:04:14 GMT 38.602604 -76.775757 19,475 165 336 2880
2022-05-28 13:04:09 GMT 38.602604 -76.775757 19,475 165 337 2944
2022-05-28 13:04:07 GMT 38.607880 -76.777420 19,300 165 339 2752
2022-05-28 13:04:03 GMT 38.611862 -76.778732 19,225 165 340 2624
2022-05-28 13:03:59 GMT 38.619083 -76.781067 19,050 165 343 704
2022-05-28 13:03:56 GMT 38.623089 -76.782349 19,025 166 343 512
2022-05-28 13:03:54 GMT 38.628479 -76.784042 19,000 166 343 64
2022-05-28 13:03:51 GMT 38.630768 -76.784790 19,000 166 343 64
2022-05-28 13:03:48 GMT 38.636810 -76.786674 19,000 166 343 64
2022-05-28 13:03:44 GMT 38.640793 -76.787987 19,000 166 343 64
2022-05-28 13:03:41 GMT 38.647888 -76.790192 19,000 166 343 64
2022-05-28 13:03:38 GMT 38.654343 -76.792282 19,000 166 343 0
2022-05-28 13:03:36 GMT 38.654343 -76.792282 19,000 166 343 64
2022-05-28 13:03:34 GMT 38.659164 -76.793762 19,000 166 344 0
2022-05-28 13:03:31 GMT 38.662846 -76.794983 19,000 166 344 -64
2022-05-28 13:03:28 GMT 38.666241 -76.796021 19,000 166 344 0
2022-05-28 13:03:25 GMT 38.671051 -76.797539 19,000 166 344 -64
2022-05-28 13:03:22 GMT 38.682449 -76.801178 19,000 166 344 0
2022-05-28 13:03:18 GMT 38.682449 -76.801178 19,000 166 344 0
2022-05-28 13:03:14 GMT 38.688168 -76.803040 19,000 166 344 64
2022-05-28 13:03:10 GMT 38.696091 -76.805542 19,000 166 344 0
2022-05-28 13:03:07 GMT 38.698563 -76.806313 19,000 166 344 64
2022-05-28 13:03:03 GMT 38.706573 -76.808884 19,000 166 344 -64
2022-05-28 13:02:59 GMT 38.711243 -76.810318 19,000 166 344 0
2022-05-28 13:02:56 GMT 38.715401 -76.811646 19,000 166 345 0
2022-05-28 13:02:53 GMT 38.719574 -76.813004 19,000 165 345 64
2022-05-28 13:02:50 GMT 38.726074 -76.815094 19,000 165 345 128
2022-05-28 13:02:46 GMT 38.730743 -76.816528 19,000 166 346 64
2022-05-28 13:02:44 GMT 38.736328 -76.818314 19,000 165 346 0
2022-05-28 13:02:41 GMT 38.746902 -76.821663 19,000 165 346 0
2022-05-28 13:02:37 GMT 38.746902 -76.821663 19,000 165 346 0
2022-05-28 13:02:34 GMT 38.750336 -76.822792 19,000 165 346 0
2022-05-28 13:02:31 GMT 38.755810 -76.824524 19,000 166 346 0
2022-05-28 13:02:27 GMT 38.762047 -76.826477 19,000 166 346 0
2022-05-28 13:02:24 GMT 38.766541 -76.827927 19,000 166 346 0
2022-05-28 13:02:21 GMT 38.772171 -76.829659 19,000 165 346 -64
2022-05-28 13:02:17 GMT 38.778526 -76.831726 19,000 165 346 0
2022-05-28 13:02:11 GMT 38.786625 -76.834290 19,000 165 346 64
2022-05-28 13:02:08 GMT 38.791283 -76.835815 19,000 165 345 64
2022-05-28 13:02:04 GMT 38.797943 -76.837959 19,000 166 346 64
2022-05-28 13:02:01 GMT 38.802456 -76.839355 19,000 165 345 64
2022-05-28 13:01:56 GMT 38.814423 -76.843216 19,000 165 345 64
2022-05-28 13:01:53 GMT 38.814423 -76.843216 19,000 165 345 64
2022-05-28 13:01:50 GMT 38.822613 -76.845886 19,000 165 345 0
2022-05-28 13:01:48 GMT 38.822613 -76.845886 19,000 165 345 0
2022-05-28 13:01:44 GMT 38.831451 -76.848831 19,000 165 344 -64
2022-05-28 13:01:39 GMT 38.835648 -76.850159 19,000 165 344 -64
2022-05-28 13:01:36 GMT 38.841064 -76.851936 19,000 165 342 0
2022-05-28 13:01:33 GMT 38.846283 -76.853661 19,000 165 343 0
2022-05-28 13:01:30 GMT 38.851055 -76.855225 19,000 165 343 0
2022-05-28 13:01:26 GMT 38.855530 -76.856712 19,000 165 342 64
2022-05-28 13:01:23 GMT 38.861069 -76.858498 19,000 165 342 64
2022-05-28 13:01:21 GMT 38.866463 -76.860291 19,000 165 341 192
2022-05-28 13:01:15 GMT 38.873657 -76.862617 18,975 165 340 192
2022-05-28 13:01:12 GMT 38.877319 -76.863815 18,900 165 331 768
2022-05-28 13:01:09 GMT 38.880848 -76.864929 18,875 165 334 384
2022-05-28 13:01:06 GMT 38.887505 -76.867126 18,950 165 333 448
2022-05-28 13:01:02 GMT 38.894257 -76.869370 18,900 165 331 704
2022-05-28 13:00:59 GMT 38.898102 -76.870621 18,875 165 329 960
2022-05-28 13:00:56 GMT 38.901352 -76.871696 18,800 165 328 1280
2022-05-28 13:00:53 GMT 38.911057 -76.874802 18,775 165 326 1536
2022-05-28 13:00:50 GMT 38.911057 -76.874802 18,675 165 326 1792
2022-05-28 13:00:48 GMT 38.914131 -76.875854 18,600 164 327 2176
2022-05-28 13:00:45 GMT 38.917511 -76.876953 18,525 164 326 2176
2022-05-28 13:00:41 GMT 38.926098 -76.880188 18,350 161 329 1920
2022-05-28 13:00:39 GMT 38.931702 -76.882858 18,275 159 331 1728
2022-05-28 13:00:36 GMT 38.934494 -76.884415 18,200 155 333 1664
2022-05-28 13:00:33 GMT 38.934494 -76.884415 18,125 153 334 1728
2022-05-28 13:00:30 GMT 38.938572 -76.886902 18,100 152 335 1728
2022-05-28 13:00:27 GMT 38.947037 -76.893250 17,875 147 337 1856
2022-05-28 13:00:24 GMT 38.951237 -76.897095 17,875 144 339 1792
2022-05-28 13:00:21 GMT 38.951237 -76.897095 17,800 142 340 1728
2022-05-28 13:00:17 GMT 38.956512 -76.902565 17,700 137 343 1472
2022-05-28 13:00:13 GMT 38.963802 -76.911987 17,575 132 343 1216
2022-05-28 13:00:10 GMT 38.963802 -76.911987 17,550 130 344 1344
2022-05-28 13:00:07 GMT 38.967911 -76.917969 17,475 130 343 1472
2022-05-28 13:00:03 GMT 38.971390 -76.923286 17,350 130 341 1664
2022-05-28 13:00:00 GMT 38.974869 -76.928535 17,300 130 341 1792
2022-05-28 12:59:57 GMT 38.977631 -76.932678 17,200 130 341 2112
2022-05-28 12:59:53 GMT 38.982147 -76.939514 17,050 130 341 2176
2022-05-28 12:59:50 GMT 38.986496 -76.946152 16,950 130 341 2240
2022-05-28 12:59:48 GMT 38.986496 -76.946152 16,900 130 341 2304
2022-05-28 12:59:46 GMT 38.988056 -76.948425 16,725 130 341 2304
2022-05-28 12:59:42 GMT 38.993042 -76.956001 16,650 130 341 2304
2022-05-28 12:59:39 GMT 38.995926 -76.960365 16,575 130 341 2304
2022-05-28 12:59:36 GMT 38.998764 -76.964722 16,225 130 342 2240
2022-05-28 12:59:33 GMT 39.003002 -76.971069 16,300 130 342 2240
2022-05-28 12:59:30 GMT 39.005466 -76.974792 16,200 130 342 2176
2022-05-28 12:59:28 GMT 39.006592 -76.976486 16,175 130 342 2176
2022-05-28 12:59:26 GMT 39.009983 -76.981567 15,875 130 342 2176
2022-05-28 12:59:23 GMT 39.012451 -76.985291 15,925 130 343 2176
2022-05-28 12:59:20 GMT 39.018829 -76.994873 15,800 130 342 2176
2022-05-28 12:59:17 GMT 39.018829 -76.994873 15,750 130 342 2176
2022-05-28 12:59:13 GMT 39.022247 -77.000008 15,550 130 342 2112
2022-05-28 12:59:09 GMT 39.025860 -77.005432 15,550 130 342 2112
2022-05-28 12:59:06 GMT 39.032318 -77.015175 15,300 130 341 2048
2022-05-28 12:59:00 GMT 39.035912 -77.020569 15,200 130 340 1984
2022-05-28 12:58:57 GMT 39.041824 -77.029480 15,000 130 339 1920
2022-05-28 12:58:54 GMT 39.041824 -77.029480 15,025 130 338 1920
2022-05-28 12:58:50 GMT 39.046619 -77.036682 14,850 130 338 1920
2022-05-28 12:58:47 GMT 39.048714 -77.039917 14,775 130 337 1920
2022-05-28 12:58:44 GMT 39.052532 -77.045776 14,700 130 336 1984
2022-05-28 12:58:40 GMT 39.056583 -77.051880 14,550 130 336 1984
2022-05-28 12:58:38 GMT 39.057678 -77.053566 14,525 130 336 2048
2022-05-28 12:58:35 GMT 39.063080 -77.061806 14,300 130 334 2048
2022-05-28 12:58:30 GMT 39.066925 -77.067535 14,200 130 334 1984
2022-05-28 12:58:27 GMT 39.069618 -77.071655 14,125 130 332 1984
2022-05-28 12:58:24 GMT 39.071384 -77.074402 14,075 130 332 2176
2022-05-28 12:58:22 GMT 39.077347 -77.083435 13,825 129 331 2368
2022-05-28 12:58:19 GMT 39.079422 -77.086586 13,850 129 331 2304
2022-05-28 12:58:16 GMT 39.079422 -77.086586 13,700 129 332 2368
2022-05-28 12:58:13 GMT 39.083488 -77.092773 13,700 129 332 2368
2022-05-28 12:58:10 GMT 39.086235 -77.096985 13,500 129 331 2176
2022-05-28 12:58:07 GMT 39.089588 -77.102173 13,250 129 331 2112
2022-05-28 12:58:04 GMT 39.091644 -77.105331 13,325 129 331 2048
2022-05-28 12:58:02 GMT 39.093613 -77.108383 13,225 129 330 1792
2022-05-28 12:57:59 GMT 39.096432 -77.112732 13,125 129 328 1664
2022-05-28 12:57:56 GMT 39.101761 -77.121040 13,025 129 325 2048
2022-05-28 12:57:53 GMT 39.101761 -77.121040 12,900 130 325 2240
2022-05-28 12:57:51 GMT 39.105057 -77.126053 12,925 130 323 2240
2022-05-28 12:57:48 GMT 39.107208 -77.129333 12,800 130 324 2240
2022-05-28 12:57:45 GMT 39.110210 -77.133911 12,725 130 323 2240
2022-05-28 12:57:42 GMT 39.118515 -77.146713 12,550 129 322 1920
2022-05-28 12:57:37 GMT 39.118515 -77.146713 12,450 129 321 1856
2022-05-28 12:57:34 GMT 39.119942 -77.148926 12,425 128 321 1664
2022-05-28 12:57:31 GMT 39.123093 -77.154236 12,250 123 318 1792
2022-05-28 12:57:28 GMT 39.128551 -77.164856 11,950 121 318 1984
2022-05-28 12:57:25 GMT 39.128551 -77.164856 12,100 120 317 2176
2022-05-28 12:57:22 GMT 39.130417 -77.168922 12,000 118 317 2368
2022-05-28 12:57:20 GMT 39.134399 -77.179016 11,875 115 317 2560
2022-05-28 12:57:10 GMT 39.139584 -77.196899 11,475 106 318 2048
2022-05-28 12:57:07 GMT 39.139584 -77.196899 11,350 103 317 2048
2022-05-28 12:57:04 GMT 39.140350 -77.200394 11,250 118 301 1920
2022-05-28 12:57:00 GMT 39.142319 -77.211739 11,175 101 315 2112
2022-05-28 12:56:58 GMT 39.142319 -77.211739 11,075 101 314 2176
2022-05-28 12:56:55 GMT 39.144241 -77.223434 10,875 102 313 2432
2022-05-28 12:56:51 GMT 39.144241 -77.223434 10,850 102 313 2560
2022-05-28 12:56:49 GMT 39.144882 -77.227081 10,775 102 312 2624
2022-05-28 12:56:46 GMT 39.146614 -77.237427 10,450 102 311 2368
2022-05-28 12:56:40 GMT 39.148132 -77.245949 10,375 102 311 2176
2022-05-28 12:56:37 GMT 39.149048 -77.251022 10,250 102 311 1984
2022-05-28 12:56:33 GMT 39.149921 -77.255859 10,125 102 311 1856
2022-05-28 12:56:29 GMT 39.151337 -77.263977 10,075 103 311 1728
2022-05-28 12:56:26 GMT 39.152527 -77.270073 9,850 110 305 1600
2022-05-28 12:56:22 GMT 39.154129 -77.277176 9,875 107 308 1472
2022-05-28 12:56:19 GMT 39.155369 -77.281799 9,800 110 305 1600
2022-05-28 12:56:16 GMT 39.157379 -77.288399 9,675 113 303 1856
2022-05-28 12:56:13 GMT 39.158478 -77.291740 9,500 115 301 1984
2022-05-28 12:56:10 GMT 39.160583 -77.297653 9,525 115 301 1984
2022-05-28 12:56:07 GMT 39.162094 -77.301476 9,450 117 301 1920
2022-05-28 12:56:04 GMT 39.163467 -77.305000 9,375 118 301 1920
2022-05-28 12:56:00 GMT 39.166679 -77.312317 8,925 123 297 1856
2022-05-28 12:55:57 GMT 39.168678 -77.316589 9,150 122 297 1792
2022-05-28 12:55:54 GMT 39.170589 -77.320496 9,075 123 296 1920
2022-05-28 12:55:50 GMT 39.173996 -77.327087 8,625 115 297 2048
2022-05-28 12:55:47 GMT 39.175850 -77.330811 8,725 120 296 2176
2022-05-28 12:55:45 GMT 39.179764 -77.339569 8,700 116 297 2048
2022-05-28 12:55:42 GMT 39.179764 -77.339569 8,575 113 298 1984
2022-05-28 12:55:39 GMT 39.181686 -77.345062 8,525 109 298 1920
2022-05-28 12:55:34 GMT 39.183716 -77.352600 8,300 101 298 1728
2022-05-28 12:55:30 GMT 39.184929 -77.358459 8,250 98 298 1664
2022-05-28 12:55:27 GMT 39.185852 -77.365662 8,175 95 297 1664
2022-05-28 12:55:24 GMT 39.186184 -77.370422 8,100 91 297 1792
2022-05-28 12:55:21 GMT 39.186264 -77.377663 7,975 86 295 1984
2022-05-28 12:55:18 GMT 39.186127 -77.380829 7,525 78 294 2176
2022-05-28 12:55:15 GMT 39.185532 -77.387100 7,775 80 294 2176
2022-05-28 12:55:12 GMT 39.185162 -77.390015 7,700 77 293 2176
2022-05-28 12:55:09 GMT 39.183903 -77.396851 7,475 66 291 1792
2022-05-28 12:55:06 GMT 39.182411 -77.402832 7,475 67 291 1792
2022-05-28 12:55:02 GMT 39.181137 -77.406860 7,000 59 288 1792
2022-05-28 12:54:59 GMT 39.179352 -77.411461 7,250 59 288 1792
2022-05-28 12:54:55 GMT 39.176224 -77.418091 7,000 44 282 1984
2022-05-28 12:54:53 GMT 39.174728 -77.420715 7,100 49 285 1856
2022-05-28 12:54:50 GMT 39.172073 -77.424896 6,750 34 281 2240
2022-05-28 12:54:44 GMT 39.166946 -77.431160 6,850 37 281 2176
2022-05-28 12:54:42 GMT 39.158161 -77.441879 6,750 17 279 2112
2022-05-28 12:54:38 GMT 39.156929 -77.441963 5,500 3 265 2016
2022-05-28 12:54:35 GMT 39.154480 -77.442123 5,500 3 265 2016
2022-05-28 12:54:34 GMT 39.153252 -77.442200 5,500 3 265 2016
2022-05-28 12:54:32 GMT 39.150799 -77.442368 5,500 3 265 2016
2022-05-28 12:54:31 GMT 39.149578 -77.442451 5,500 3 265 704
2022-05-28 12:54:28 GMT 39.145901 -77.442703 5,500 3 265 704
2022-05-28 12:54:26 GMT 39.143452 -77.442863 5,500 3 265 704
2022-05-28 12:54:25 GMT 39.142220 -77.442940 5,500 3 265 704
2022-05-28 12:54:24 GMT 39.139771 -77.443108 5,500 3 265 704
2022-05-28 12:54:22 GMT 39.138538 -77.443192 5,500 3 265 704
2022-05-28 12:54:20 GMT 39.136089 -77.443352 5,500 3 265 704
2022-05-28 12:54:18 GMT 39.133640 -77.443520 5,500 3 265 704
2022-05-28 12:54:17 GMT 39.131180 -77.443680 5,500 3 265 704
2022-05-28 12:54:14 GMT 39.128731 -77.443848 5,500 3 265 704
2022-05-28 12:54:12 GMT 39.126282 -77.444008 5,500 3 265 704
2022-05-28 12:54:11 GMT 39.123829 -77.444168 5,500 3 265 704
2022-05-28 12:54:09 GMT 39.122601 -77.444260 5,500 3 265 704
2022-05-28 12:54:08 GMT 39.120071 -77.444298 5,300 3 264 704
2022-05-28 12:54:06 GMT 39.117630 -77.444473 5,300 3 264 704
2022-05-28 12:54:04 GMT 39.115189 -77.444649 5,300 3 264 704
2022-05-28 12:54:02 GMT 39.114090 -77.444649 5,200 3 267 704
2022-05-28 12:54:00 GMT 39.111622 -77.444839 5,200 3 267 704
2022-05-28 12:53:58 GMT 39.108799 -77.444969 5,100 3 257 704
2022-05-28 12:53:56 GMT 39.106419 -77.445160 5,100 3 257 704
2022-05-28 12:53:54 GMT 39.104050 -77.445351 5,100 3 257 704
2022-05-28 12:53:53 GMT 39.101391 -77.445580 5,000 2 264 1216
2022-05-28 12:53:51 GMT 39.100231 -77.445671 4,900 3 251 704
2022-05-28 12:53:50 GMT 39.097660 -77.445732 4,900 3 246 704
2022-05-28 12:53:48 GMT 39.095379 -77.445930 4,900 3 246 704
2022-05-28 12:53:46 GMT 39.094238 -77.446030 4,900 3 246 704
2022-05-28 12:53:44 GMT 39.091709 -77.446243 4,800 3 241 704
2022-05-28 12:53:43 GMT 39.090591 -77.446342 4,800 3 241 704
2022-05-28 12:53:41 GMT 39.088360 -77.446541 4,800 3 241 704
2022-05-28 12:53:40 GMT 39.086369 -77.446732 4,600 3 248 704
2022-05-28 12:53:37 GMT 39.084080 -77.446938 4,600 3 248 704
2022-05-28 12:53:35 GMT 39.081291 -77.447220 4,500 3 233 704
2022-05-28 12:53:34 GMT 39.079128 -77.447403 4,500 3 233 704
2022-05-28 12:53:32 GMT 39.078060 -77.447487 4,500 3 233 704
2022-05-28 12:53:30 GMT 39.075901 -77.447708 4,400 3 234 1664
2022-05-28 12:53:29 GMT 39.074821 -77.447800 4,400 3 234 1664
2022-05-28 12:53:27 GMT 39.072651 -77.447983 4,400 3 234 1664
2022-05-28 12:53:25 GMT 39.069382 -77.448059 4,400 4 231 1664
2022-05-28 12:53:23 GMT 39.068310 -77.448174 4,400 4 231 1664
2022-05-28 12:53:21 GMT 39.066151 -77.448776 4,300 3 226 1664
2022-05-28 12:53:20 GMT 39.064060 -77.448921 4,300 3 226 1664
2022-05-28 12:53:18 GMT 39.063011 -77.448982 4,300 3 226 1664
2022-05-28 12:53:16 GMT 39.060398 -77.448799 4,200 4 207 1664
2022-05-28 12:53:15 GMT 39.058479 -77.448990 4,200 4 207 1664
2022-05-28 12:53:13 GMT 39.057529 -77.449089 4,200 4 207 1664
2022-05-28 12:53:12 GMT 39.055271 -77.449211 4,200 5 200 1664
2022-05-28 12:53:10 GMT 39.054340 -77.449310 4,200 5 200 1664
2022-05-28 12:53:09 GMT 39.053421 -77.449409 4,200 5 200 1664
2022-05-28 12:53:08 GMT 39.051411 -77.449448 4,000 5 198 1664
2022-05-28 12:53:05 GMT 39.048672 -77.449791 4,000 5 198 1664
2022-05-28 12:53:03 GMT 39.047600 -77.449806 4,000 6 195 1664
2022-05-28 12:53:02 GMT 39.045799 -77.450058 4,000 6 195 1664
2022-05-28 12:52:59 GMT 39.044010 -77.450310 4,000 6 195 1664
2022-05-28 12:52:57 GMT 39.042221 -77.450447 3,900 6 195 1664
2022-05-28 12:52:56 GMT 39.040428 -77.450722 3,900 6 195 1664
2022-05-28 12:52:54 GMT 39.039532 -77.450851 3,900 6 195 1664
2022-05-28 12:52:53 GMT 39.038670 -77.450912 3,500 6 196 1664
2022-05-28 12:52:51 GMT 39.036861 -77.451187 3,500 6 196 1664
2022-05-28 12:52:50 GMT 39.035961 -77.451317 3,500 6 196 1664
2022-05-28 12:52:48 GMT 39.034191 -77.451622 3,500 6 197 1664
2022-05-28 12:52:46 GMT 39.032379 -77.451889 3,500 6 197 1664
2022-05-28 12:52:45 GMT 39.030560 -77.452217 3,300 6 197 1664
2022-05-28 12:52:43 GMT 39.028751 -77.452469 3,300 6 197 1664
2022-05-28 12:52:41 GMT 39.027840 -77.452599 3,300 6 197 1664
2022-05-28 12:52:39 GMT 39.026379 -77.452766 3,100 6 203 1664
2022-05-28 12:52:38 GMT 39.024509 -77.453049 3,100 6 203 1664
2022-05-28 12:52:36 GMT 39.023571 -77.453194 3,100 6 203 1664
2022-05-28 12:52:35 GMT 39.021858 -77.453484 2,900 5 206 1664
2022-05-28 12:52:32 GMT 39.019970 -77.453743 2,900 5 206 1664
2022-05-28 12:52:31 GMT 39.017910 -77.454033 2,600 5 196 1568
2022-05-28 12:52:29 GMT 39.016102 -77.454269 2,600 5 196 1568
2022-05-28 12:52:27 GMT 39.013550 -77.454742 2,600 5 174 1568
2022-05-28 12:52:25 GMT 39.011951 -77.454918 2,600 5 174 1568
2022-05-28 12:52:22 GMT 39.010342 -77.455109 2,600 5 174 1568
2022-05-28 12:52:20 GMT 39.008530 -77.455322 2,500 5 171 1568
2022-05-28 12:52:19 GMT 39.006962 -77.455498 2,500 5 171 1568
2022-05-28 12:52:16 GMT 39.005180 -77.455742 2,400 4 167 1568
2022-05-28 12:52:15 GMT 39.003632 -77.455910 2,400 4 167 1568
2022-05-28 12:52:13 GMT 39.002010 -77.456093 2,300 4 166 1568
2022-05-28 12:52:10 GMT 39.000481 -77.456261 2,300 4 166 1568
2022-05-28 12:52:09 GMT 38.998940 -77.456421 2,300 4 166 1568
2022-05-28 12:52:07 GMT 38.998341 -77.456497 2,225 4 170 1568
2022-05-28 12:52:05 GMT 38.996780 -77.456657 2,125 4 170 1568
2022-05-28 12:52:04 GMT 38.995861 -77.456779 2,125 4 166 1568
2022-05-28 12:52:03 GMT 38.994419 -77.456963 2,000 3 169 1568
2022-05-28 12:52:01 GMT 38.993629 -77.457031 2,000 3 169 1568
2022-05-28 12:52:00 GMT 38.992008 -77.457169 2,000 4 167 1568
2022-05-28 12:51:58 GMT 38.991348 -77.457230 1,800 4 170 1568
2022-05-28 12:51:57 GMT 38.990520 -77.457329 1,800 3 169 1568
2022-05-28 12:51:55 GMT 38.988861 -77.457481 1,800 3 165 1568
2022-05-28 12:51:54 GMT 38.987370 -77.457619 1,750 3 167 1568
2022-05-28 12:51:52 GMT 38.986561 -77.457718 1,600 2 166 1568
2022-05-28 12:51:50 GMT 38.984951 -77.457832 1,600 2 160 1568
2022-05-28 12:51:49 GMT 38.984329 -77.457840 1,475 2 168 1568
2022-05-28 12:51:47 GMT 38.982819 -77.457932 1,475 2 170 1568
2022-05-28 12:51:46 GMT 38.981232 -77.457970 1,400 4 169 1568
2022-05-28 12:51:44 GMT 38.979698 -77.458138 1,200 3 171 1568
2022-05-28 12:51:42 GMT 38.978901 -77.458229 1,200 3 171 1568
2022-05-28 12:51:41 GMT 38.977341 -77.458351 1,000 3 172 1568
2022-05-28 12:51:39 GMT 38.975780 -77.458473 1,000 2 174 1568
2022-05-28 12:51:37 GMT 38.974918 -77.458542 1,000 2 169 1568
2022-05-28 12:51:35 GMT 38.973351 -77.458633 600 2 169 1568
2022-05-28 12:51:34 GMT 38.971802 -77.458702 600 3 169 1568
2022-05-28 12:51:32 GMT 38.971020 -77.458740 600 3 169 1568
2022-05-28 12:51:30 GMT 38.969460 -77.458862 600 3 171 1568
2022-05-28 12:51:28 GMT 38.967861 -77.459000 600 2 168 0
2022-05-28 12:51:26 GMT 38.966309 -77.459106 600 1 169 0
2022-05-28 12:51:25 GMT 38.964748 -77.459167 550 2 173 0
2022-05-28 12:51:22 GMT 38.963131 -77.459267 500 2 170 0
2022-05-28 12:51:21 GMT 38.961571 -77.459351 425 1 173 0
2022-05-28 12:51:19 GMT 38.960781 -77.459396 425 1 173 0
2022-05-28 12:51:17 GMT 38.959229 -77.459442 375 1 174 0
2022-05-28 12:51:16 GMT 38.958408 -77.459480 375 1 171 0
2022-05-28 12:51:15 GMT 38.956841 -77.459511 375 0 165 0
2022-05-28 12:51:12 GMT 38.955311 -77.459572 375 0 157 0
2022-05-28 12:51:10 GMT 38.953838 -77.459587 375 359 149 0
2022-05-28 12:51:08 GMT 38.952469 -77.459572 375 0 143 0
2022-05-28 12:51:06 GMT 38.951149 -77.459587 375 0 138 -64
2022-05-28 12:51:05 GMT 38.949890 -77.459579 375 0 132 -64
2022-05-28 12:51:02 GMT 38.948669 -77.459602 375 1 125 -64
2022-05-28 12:51:01 GMT 38.948101 -77.459610 375 1 123 -64
2022-05-28 12:51:00 GMT 38.946972 -77.459633 375 1 115 0
2022-05-28 12:50:58 GMT 38.946442 -77.459663 0 1 111 0
2022-05-28 12:50:56 GMT 38.945400 -77.459709 0 0 99 0
2022-05-28 12:50:54 GMT 38.944489 -77.459732 0 0 93 0
2022-05-28 12:50:53 GMT 38.943642 -77.459709 0 0 84 0
2022-05-28 12:50:51 GMT 38.943249 -77.459709 0 1 79 0
2022-05-28 12:50:49 GMT 38.942520 -77.459747 0 359 72 0
2022-05-28 12:50:48 GMT 38.941860 -77.459747 0 359 61 0
2022-05-28 12:50:46 GMT 38.941551 -77.459740 0 0 55 0
2022-05-28 12:50:44 GMT 38.941029 -77.459778 0 356 46 0
2022-05-28 12:50:43 GMT 38.940819 -77.459763 0 357 43 0
2022-05-28 12:50:42 GMT 38.940361 -77.459717 0 1 30 0
2022-05-28 12:50:40 GMT 38.940220 -77.459702 0 5 27 0
2022-05-28 12:50:39 GMT 38.939968 -77.459732 0 3 20 0
2022-05-28 12:50:37 GMT 38.939850 -77.459740 0 3 16 0
2022-05-28 12:50:35 GMT 38.939678 -77.459770 0 353 9 0
2022-05-28 12:50:34 GMT 38.939548 -77.459747 0 0 3 0
2022-05-28 12:50:30 GMT 38.939510 -77.459747 0 0 1 0
2022-05-28 12:50:26 GMT 38.939491 -77.459770 0 1 0 0
2022-05-28 12:50:25 GMT 38.939468 -77.459778 0 1 1 0
2022-05-28 12:50:22 GMT 38.939461 -77.459778 0 1 3 0
2022-05-28 12:50:21 GMT 38.939491 -77.459763 0 1 0 0
2022-05-28 12:50:17 GMT 38.939499 -77.459732 0 2 2 0
2022-05-28 12:50:16 GMT 38.939491 -77.459763 0 8 3 0
2022-05-28 12:50:15 GMT 38.939491 -77.459732 0 15 5 0
2022-05-28 12:50:13 GMT 38.939442 -77.459740 0 14 5 0
2022-05-28 12:50:12 GMT 38.939411 -77.459778 0 352 7 0
2022-05-28 12:50:10 GMT 38.939381 -77.459763 0 339 6 0
2022-05-28 12:50:08 GMT 38.939308 -77.459778 0 324 5 0
2022-05-28 12:50:06 GMT 38.939270 -77.459740 0 311 5 0
2022-05-28 12:50:04 GMT 38.939232 -77.459709 0 286 5 0
2022-05-28 12:50:02 GMT 38.939190 -77.459663 0 276 6 0
2022-05-28 12:50:00 GMT 38.939190 -77.459587 0 277 6 0
2022-05-28 12:49:58 GMT 38.939159 -77.459549 0 274 9 0
2022-05-28 12:49:57 GMT 38.939178 -77.459450 0 277 9 0
2022-05-28 12:49:55 GMT 38.939171 -77.459389 0 272 9 0
2022-05-28 12:49:54 GMT 38.939152 -77.459328 0 269 7 0
2022-05-28 12:49:52 GMT 38.939171 -77.459244 0 275 6 0
2022-05-28 12:49:51 GMT 38.939140 -77.459183 0 262 8 0
2022-05-28 12:49:48 GMT 38.939159 -77.459068 0 268 7 0
2022-05-28 12:49:46 GMT 38.939171 -77.458977 0 270 6 0
2022-05-28 12:49:44 GMT 38.939171 -77.458893 0 267 5 0
2022-05-28 12:49:42 GMT 38.939171 -77.458817 0 261 4 0
2022-05-28 12:49:40 GMT 38.939171 -77.458809 0 274 6 0
2022-05-28 12:49:39 GMT 38.939171 -77.458733 0 269 4 0
2022-05-28 12:49:36 GMT 38.939178 -77.458672 0 268 2 0
2022-05-28 12:49:35 GMT 38.939159 -77.458687 0 263 5 0
2022-05-28 12:49:33 GMT 38.939159 -77.458611 0 286 2 0
2022-05-28 12:49:31 GMT 38.939171 -77.458588 0 286 1 0
2022-05-28 12:49:29 GMT 38.939171 -77.458557 0 286 1 0
2022-05-28 12:49:27 GMT 38.939190 -77.458572 0 287 1 0
2022-05-28 12:49:26 GMT 38.939171 -77.458549 0 285 2 0
2022-05-28 12:49:24 GMT 38.939178 -77.458572 0 285 1 0
2022-05-28 12:49:22 GMT 38.939178 -77.458580 0 284 1 0
2022-05-28 12:49:21 GMT 38.939178 -77.458588 0 283 3 0
2022-05-28 12:49:18 GMT 38.939178 -77.458519 0 270 2 0
2022-05-28 12:49:17 GMT 38.939140 -77.458527 0 266 2 0
2022-05-28 12:49:15 GMT 38.939129 -77.458511 0 260 6 0
2022-05-28 12:49:13 GMT 38.939140 -77.458481 0 266 6 0
2022-05-28 12:49:12 GMT 38.939140 -77.458397 0 259 4 0
2022-05-28 12:49:10 GMT 38.939140 -77.458366 0 256 4 0
2022-05-28 12:49:08 GMT 38.939152 -77.458328 0 264 5 0
2022-05-28 12:49:06 GMT 38.939159 -77.458298 0 269 9 0
2022-05-28 12:49:04 GMT 38.939171 -77.458183 0 276 8 0
2022-05-28 12:49:03 GMT 38.939171 -77.458130 0 276 7 0
2022-05-28 12:49:01 GMT 38.939159 -77.458038 0 271 8 0
2022-05-28 12:49:00 GMT 38.939159 -77.457916 0 273 6 0
2022-05-28 12:48:58 GMT 38.939152 -77.457893 0 270 5 0
2022-05-28 12:48:56 GMT 38.939159 -77.457802 0 277 8 0
2022-05-28 12:48:54 GMT 38.939140 -77.457710 0 268 8 0
2022-05-28 12:48:52 GMT 38.939152 -77.457672 0 264 8 0
2022-05-28 12:48:50 GMT 38.939140 -77.457558 0 249 7 0
2022-05-28 12:48:49 GMT 38.939140 -77.457481 0 231 8 0
2022-05-28 12:48:47 GMT 38.939159 -77.457420 0 222 7 0
2022-05-28 12:48:46 GMT 38.939190 -77.457367 0 210 5 0
2022-05-28 12:48:45 GMT 38.939201 -77.457352 0 189 9 0
2022-05-28 12:48:43 GMT 38.939259 -77.457283 0 177 6 0
2022-05-28 12:48:41 GMT 38.939301 -77.457291 0 175 8 0
2022-05-28 12:48:40 GMT 38.939411 -77.457260 0 151 2 0
2022-05-28 12:48:37 GMT 38.939442 -77.457253 0 151 3 0
2022-05-28 12:48:36 GMT 38.939419 -77.457260 0 165 7 0
2022-05-28 12:48:34 GMT 38.939468 -77.457314 0 187 7 0
2022-05-28 12:48:33 GMT 38.939522 -77.457321 0 184 11 0
2022-05-28 12:48:31 GMT 38.939571 -77.457314 0 183 9 0
2022-05-28 12:48:29 GMT 38.939659 -77.457298 0 183 10 0
2022-05-28 12:48:27 GMT 38.939758 -77.457283 0 181 10 0
2022-05-28 12:48:26 GMT 38.939850 -77.457291 0 184 10 0
2022-05-28 12:48:23 GMT 38.939968 -77.457268 0 171 5 0
2022-05-28 12:48:21 GMT 38.939991 -77.457268 0 170 8 0
2022-05-28 12:48:19 GMT 38.940048 -77.457314 0 183 10 0
2022-05-28 12:48:17 GMT 38.940159 -77.457298 0 181 7 0
2022-05-28 12:48:15 GMT 38.940220 -77.457283 0 178 8 0
2022-05-28 12:48:13 GMT 38.940300 -77.457283 0 182 9 0
2022-05-28 12:48:11 GMT 38.940392 -77.457298 0 186 5 0
2022-05-28 12:48:10 GMT 38.940430 -77.457291 0 178 7 0
2022-05-28 12:48:08 GMT 38.940472 -77.457268 0 170 6 0
2022-05-28 12:48:07 GMT 38.940521 -77.457283 0 183 6 0
2022-05-28 12:48:04 GMT 38.940559 -77.457298 0 186 7 0
2022-05-28 12:48:03 GMT 38.940632 -77.457268 0 180 6 0
2022-05-28 12:48:01 GMT 38.940651 -77.457283 0 178 7 0
2022-05-28 12:47:59 GMT 38.940720 -77.457268 0 162 6 0
2022-05-28 12:47:58 GMT 38.940781 -77.457283 0 180 5 0
2022-05-28 12:47:56 GMT 38.940830 -77.457283 0 183 0 0
2022-05-28 12:47:55 GMT 38.940811 -77.457283 0 180 4 0
2022-05-28 12:47:53 GMT 38.940849 -77.457291 0 193 5 0
2022-05-28 12:47:51 GMT 38.940880 -77.457283 0 186 3 0
2022-05-28 12:47:50 GMT 38.940922 -77.457237 0 172 4 0
2022-05-28 12:47:48 GMT 38.940948 -77.457268 0 176 2 0
2022-05-28 12:47:46 GMT 38.940960 -77.457260 0 174 2 0
2022-05-28 12:47:44 GMT 38.940971 -77.457253 0 174 2 0
2022-05-28 12:47:43 GMT 38.941010 -77.457230 0 174 2 0
2022-05-28 12:47:41 GMT 38.941021 -77.457237 0 174 2 0
2022-05-28 12:47:39 GMT 38.941029 -77.457253 0 175 2 0
2022-05-28 12:47:38 GMT 38.941051 -77.457253 0 176 2 0
2022-05-28 12:47:35 GMT 38.941051 -77.457283 0 176 2 0
2022-05-28 12:47:34 GMT 38.941059 -77.457283 0 176 2 0
2022-05-28 12:47:33 GMT 38.941078 -77.457298 0 173 3 0
2022-05-28 12:47:31 GMT 38.941090 -77.457253 0 173 1 0
2022-05-28 12:47:27 GMT 38.941090 -77.457253 0 180 2 0
2022-05-28 12:47:25 GMT 38.941101 -77.457260 0 181 0 0
2022-05-28 12:47:24 GMT 38.941101 -77.457268 0 181 0 0
2022-05-28 12:47:22 GMT 38.941101 -77.457268 0 179 0 0
2022-05-28 12:47:20 GMT 38.941090 -77.457268 0 179 0 0
2022-05-28 12:47:19 GMT 38.941101 -77.457268 0 177 1 0
2022-05-28 12:47:17 GMT 38.941101 -77.457268 0 180 1 0
2022-05-28 12:47:15 GMT 38.941101 -77.457268 0 183 2 0
2022-05-28 12:47:14 GMT 38.941071 -77.457298 0 183 1 0
2022-05-28 12:47:12 GMT 38.941071 -77.457291 0 180 2 0
2022-05-28 12:47:11 GMT 38.941078 -77.457291 0 178 2 0
2022-05-28 12:47:10 GMT 38.941071 -77.457268 0 167 4 0
2022-05-28 12:47:08 GMT 38.941109 -77.457253 0 175 3 0
2022-05-28 12:47:06 GMT 38.941120 -77.457260 0 177 5 0
2022-05-28 12:47:03 GMT 38.941170 -77.457268 0 189 4 0
2022-05-28 12:47:02 GMT 38.941189 -77.457283 0 189 3 0
2022-05-28 12:47:00 GMT 38.941231 -77.457253 0 191 3 0
2022-05-28 12:46:58 GMT 38.941261 -77.457283 0 190 2 0
2022-05-28 12:46:56 GMT 38.941261 -77.457253 0 190 2 0
2022-05-28 12:46:54 GMT 38.941269 -77.457283 0 191 2 0
2022-05-28 12:46:53 GMT 38.941280 -77.457283 0 191 2 0
2022-05-28 12:46:52 GMT 38.941360 -77.457253 0 192 0 0
2022-05-28 12:46:50 GMT 38.941360 -77.457237 0 192 1 0
2022-05-28 12:46:48 GMT 38.941368 -77.457260 0 192 0 0
2022-05-28 12:46:47 GMT 38.941368 -77.457268 0 192 0 0
2022-05-28 12:46:45 GMT 38.941349 -77.457253 0 192 0 0
2022-05-28 12:46:43 GMT 38.941349 -77.457260 0 192 0 0
2022-05-28 12:46:42 GMT 38.941360 -77.457260 0 192 0 0
2022-05-28 12:46:40 GMT 38.941360 -77.457260 0 192 0 0
2022-05-28 12:46:38 GMT 38.941360 -77.457268 0 192 0 0
2022-05-28 12:46:34 GMT 38.941368 -77.457260 0 192 0 0
2022-05-28 12:46:32 GMT 38.941368 -77.457268 0 192 0 0
2022-05-28 12:46:30 GMT 38.941380 -77.457260 0 192 0 0
2022-05-28 12:46:28 GMT 38.941360 -77.457283 0 192 0 0
2022-05-28 12:46:27 GMT 38.941360 -77.457268 0 193 0 0
2022-05-28 12:46:24 GMT 38.941360 -77.457268 0 193 0 0
2022-05-28 12:46:23 GMT 38.941368 -77.457268 0 193 0 0
2022-05-28 12:46:21 GMT 38.941368 -77.457260 0 193 0 0
2022-05-28 12:46:20 GMT 38.941368 -77.457268 0 193 0 0
2022-05-28 12:46:18 GMT 38.941368 -77.457253 0 193 0 0
2022-05-28 12:46:17 GMT 38.941360 -77.457260 0 193 0 0
2022-05-28 12:46:13 GMT 38.941360 -77.457253 0 193 0 0
2022-05-28 12:46:07 GMT 38.941360 -77.457260 0 202 1 0
2022-05-28 12:46:05 GMT 38.941341 -77.457260 0 202 0 0
2022-05-28 12:46:04 GMT 38.941360 -77.457268 0 202 0 0
2022-05-28 12:46:02 GMT 38.941368 -77.457260 0 203 0 0
2022-05-28 12:45:59 GMT 38.941360 -77.457283 0 203 0 0
2022-05-28 12:45:55 GMT 38.941330 -77.457291 0 203 1 0
2022-05-28 12:45:54 GMT 38.941341 -77.457291 0 203 1 0
2022-05-28 12:45:53 GMT 38.941349 -77.457283 0 202 2 0
2022-05-28 12:45:51 GMT 38.941391 -77.457253 0 202 0 0
2022-05-28 12:45:48 GMT 38.941391 -77.457253 0 202 0 0
2022-05-28 12:45:47 GMT 38.941410 -77.457237 0 202 0 0
2022-05-28 12:45:41 GMT 38.941380 -77.457268 0 204 0 0
2022-05-28 12:45:40 GMT 38.941368 -77.457283 0 205 0 0
2022-05-28 12:45:39 GMT 38.941368 -77.457283 0 205 0 0
2022-05-28 12:45:36 GMT 38.941380 -77.457283 0 205 1 0
2022-05-28 12:45:34 GMT 38.941368 -77.457268 0 195 1 0
2022-05-28 12:45:33 GMT 38.941360 -77.457268 0 195 0 0
2022-05-28 12:45:31 GMT 38.941349 -77.457268 0 195 1 0
2022-05-28 12:45:30 GMT 38.941330 -77.457291 0 195 2 0
2022-05-28 12:45:29 GMT 38.941360 -77.457268 0 195 0 0
2022-05-28 12:45:26 GMT 38.941368 -77.457283 0 195 0 0
2022-05-28 12:45:23 GMT 38.941368 -77.457283 0 195 1 0
2022-05-28 12:45:21 GMT 38.941349 -77.457283 0 195 2 0
2022-05-28 12:45:18 GMT 38.941349 -77.457283 0 192 4 0
2022-05-28 12:45:17 GMT 38.941368 -77.457268 0 184 4 0
2022-05-28 12:45:15 GMT 38.941422 -77.457237 0 179 2 0
2022-05-28 12:45:14 GMT 38.941422 -77.457260 0 180 5 0
2022-05-28 12:45:12 GMT 38.941460 -77.457260 0 177 6 0
2022-05-28 12:45:11 GMT 38.941509 -77.457253 0 170 6 0
2022-05-28 12:45:09 GMT 38.941509 -77.457260 0 175 9 0
2022-05-28 12:45:08 GMT 38.941601 -77.457268 0 177 9 0
2022-05-28 12:45:06 GMT 38.941689 -77.457298 0 190 9 0
2022-05-28 12:45:04 GMT 38.941738 -77.457283 0 186 8 0
2022-05-28 12:45:02 GMT 38.941799 -77.457268 0 186 9 0
2022-05-28 12:45:01 GMT 38.941841 -77.457260 0 182 9 0
2022-05-28 12:44:59 GMT 38.941929 -77.457253 0 179 9 0
2022-05-28 12:44:58 GMT 38.942032 -77.457230 0 171 7 0
2022-05-28 12:44:56 GMT 38.942070 -77.457230 0 170 6 0
2022-05-28 12:44:54 GMT 38.942108 -77.457268 0 186 8 0
2022-05-28 12:44:53 GMT 38.942169 -77.457253 0 177 8 0
2022-05-28 12:44:50 GMT 38.942261 -77.457253 0 176 7 0
2022-05-28 12:44:49 GMT 38.942322 -77.457283 0 183 8 0
2022-05-28 12:44:47 GMT 38.942410 -77.457237 0 186 5 0
2022-05-28 12:44:44 GMT 38.942440 -77.457260 0 188 6 0
2022-05-28 12:44:43 GMT 38.942501 -77.457230 0 171 7 0
2022-05-28 12:44:41 GMT 38.942539 -77.457230 0 169 5 0
2022-05-28 12:44:39 GMT 38.942581 -77.457260 0 178 6 0
2022-05-28 12:44:38 GMT 38.942600 -77.457253 0 179 7 0
2022-05-28 12:44:36 GMT 38.942669 -77.457268 0 186 6 0
2022-05-28 12:44:34 GMT 38.942719 -77.457253 0 176 5 0
2022-05-28 12:44:32 GMT 38.942768 -77.457253 0 189 5 0
2022-05-28 12:44:31 GMT 38.942780 -77.457283 0 192 6 0
2022-05-28 12:44:29 GMT 38.942822 -77.457260 0 181 8 0
2022-05-28 12:44:27 GMT 38.942909 -77.457199 0 172 7 0
2022-05-28 12:44:25 GMT 38.942970 -77.457253 0 183 5 0
2022-05-28 12:44:23 GMT 38.943008 -77.457253 0 180 6 0
2022-05-28 12:44:21 GMT 38.943062 -77.457222 0 174 7 0
2022-05-28 12:44:20 GMT 38.943150 -77.457253 0 181 4 0
2022-05-28 12:44:18 GMT 38.943161 -77.457237 0 173 5 0
2022-05-28 12:44:17 GMT 38.943211 -77.457237 0 179 3 0
2022-05-28 12:44:15 GMT 38.943241 -77.457253 0 193 3 0
2022-05-28 12:44:13 GMT 38.943241 -77.457268 0 195 5 0
2022-05-28 12:44:11 GMT 38.943310 -77.457237 0 181 3 0
2022-05-28 12:44:10 GMT 38.943340 -77.457230 0 164 3 0
2022-05-28 12:44:08 GMT 38.943359 -77.457199 0 166 3 0
2022-05-28 12:44:06 GMT 38.943390 -77.457230 0 168 1 0
2022-05-28 12:44:04 GMT 38.943390 -77.457207 0 172 2 0
2022-05-28 12:44:03 GMT 38.943390 -77.457253 0 176 3 0
2022-05-28 12:44:01 GMT 38.943401 -77.457268 0 175 2 0
2022-05-28 12:44:00 GMT 38.943420 -77.457260 0 168 3 0
2022-05-28 12:43:57 GMT 38.943459 -77.457268 0 168 2 0
2022-05-28 12:43:56 GMT 38.943470 -77.457230 0 167 0 0
2022-05-28 12:43:54 GMT 38.943470 -77.457207 0 167 1 0
2022-05-28 12:43:52 GMT 38.943459 -77.457237 0 181 4 0
2022-05-28 12:43:50 GMT 38.943489 -77.457237 0 184 5 0
2022-05-28 12:43:48 GMT 38.943539 -77.457230 0 182 5 0
2022-05-28 12:43:47 GMT 38.943562 -77.457237 0 182 6 0
2022-05-28 12:43:45 GMT 38.943611 -77.457230 0 176 6 0
2022-05-28 12:43:43 GMT 38.943649 -77.457222 0 174 10 0
2022-05-28 12:43:41 GMT 38.943748 -77.457237 0 181 9 0
2022-05-28 12:43:40 GMT 38.943779 -77.457260 0 186 9 0
2022-05-28 12:43:38 GMT 38.943859 -77.457253 0 183 9 0
2022-05-28 12:43:37 GMT 38.943970 -77.457230 0 185 7 0
2022-05-28 12:43:35 GMT 38.944000 -77.457237 0 190 6 0
2022-05-28 12:43:33 GMT 38.944038 -77.457230 0 182 9 0
2022-05-28 12:43:32 GMT 38.944130 -77.457199 0 178 7 0
2022-05-28 12:43:30 GMT 38.944199 -77.457207 0 174 7 0
2022-05-28 12:43:28 GMT 38.944260 -77.457207 0 175 7 0
2022-05-28 12:43:25 GMT 38.944302 -77.457253 0 187 11 0
2022-05-28 12:43:24 GMT 38.944401 -77.457222 0 182 11 0
2022-05-28 12:43:21 GMT 38.944530 -77.457199 0 176 8 0
2022-05-28 12:43:20 GMT 38.944550 -77.457222 0 178 8 0
2022-05-28 12:43:18 GMT 38.944630 -77.457207 0 177 10 0
2022-05-28 12:43:16 GMT 38.944721 -77.457222 0 181 9 0
2022-05-28 12:43:15 GMT 38.944790 -77.457237 0 186 11 0
2022-05-28 12:43:13 GMT 38.944901 -77.457207 0 180 8 0
2022-05-28 12:43:11 GMT 38.944950 -77.457191 0 180 8 0
2022-05-28 12:43:10 GMT 38.945011 -77.457199 0 180 10 0
2022-05-28 12:43:08 GMT 38.945099 -77.457222 0 183 9 0
2022-05-28 12:43:06 GMT 38.945148 -77.457191 0 172 8 0
2022-05-28 12:43:04 GMT 38.945229 -77.457176 0 170 7 0
2022-05-28 12:43:03 GMT 38.945259 -77.457199 0 175 7 0
2022-05-28 12:43:01 GMT 38.945309 -77.457222 0 184 9 0
2022-05-28 12:43:00 GMT 38.945400 -77.457230 0 185 7 0
2022-05-28 12:42:58 GMT 38.945469 -77.457222 0 185 7 0
2022-05-28 12:42:56 GMT 38.945530 -77.457191 0 174 9 0
2022-05-28 12:42:54 GMT 38.945572 -77.457191 0 176 8 0
2022-05-28 12:42:52 GMT 38.945629 -77.457207 0 183 9 0
2022-05-28 12:42:50 GMT 38.945728 -77.457207 0 184 8 0
2022-05-28 12:42:49 GMT 38.945789 -77.457207 0 186 8 0
2022-05-28 12:42:46 GMT 38.945862 -77.457191 0 179 8 0
2022-05-28 12:42:45 GMT 38.945930 -77.457176 0 175 9 0
2022-05-28 12:42:43 GMT 38.945980 -77.457176 0 175 8 0
2022-05-28 12:42:42 GMT 38.946030 -77.457207 0 184 7 0
2022-05-28 12:42:40 GMT 38.946079 -77.457207 0 187 8 0
2022-05-28 12:42:39 GMT 38.946152 -77.457191 0 180 9 0
2022-05-28 12:42:37 GMT 38.946209 -77.457169 0 174 8 0
2022-05-28 12:42:35 GMT 38.946289 -77.457153 0 166 6 0
2022-05-28 12:42:34 GMT 38.946331 -77.457207 0 184 8 0
2022-05-28 12:42:32 GMT 38.946350 -77.457199 0 186 9 0
2022-05-28 12:42:31 GMT 38.946388 -77.457222 0 188 10 0
2022-05-28 12:42:29 GMT 38.946480 -77.457191 0 181 10 0
2022-05-28 12:42:27 GMT 38.946629 -77.457191 0 177 8 0
2022-05-28 12:42:25 GMT 38.946659 -77.457176 0 177 9 0
2022-05-28 12:42:23 GMT 38.946758 -77.457176 0 172 6 0
2022-05-28 12:42:22 GMT 38.946800 -77.457191 0 174 8 0
2022-05-28 12:42:20 GMT 38.946819 -77.457176 0 177 10 0
2022-05-28 12:42:18 GMT 38.946911 -77.457207 0 180 9 0
2022-05-28 12:42:16 GMT 38.946991 -77.457199 0 184 9 0
2022-05-28 12:42:14 GMT 38.947079 -77.457222 0 182 9 0
2022-05-28 12:42:12 GMT 38.947159 -77.457199 0 185 10 0
2022-05-28 12:42:10 GMT 38.947250 -77.457199 0 188 11 0
2022-05-28 12:42:08 GMT 38.947430 -77.457153 0 216 5 0
2022-05-28 12:42:06 GMT 38.947449 -77.457161 0 227 7 0
2022-05-28 12:42:04 GMT 38.947498 -77.457123 0 239 7 0
2022-05-28 12:42:03 GMT 38.947552 -77.457031 0 256 7 0
2022-05-28 12:42:01 GMT 38.947590 -77.457001 0 268 6 0
2022-05-28 12:42:00 GMT 38.947601 -77.456940 0 274 9 0
2022-05-28 12:41:58 GMT 38.947601 -77.456863 0 272 5 0
2022-05-28 12:41:56 GMT 38.947578 -77.456841 0 267 11 0
2022-05-28 12:41:54 GMT 38.947571 -77.456749 0 265 13 0
2022-05-28 12:41:53 GMT 38.947578 -77.456680 0 268 13 0
2022-05-28 12:41:51 GMT 38.947578 -77.456520 0 275 11 0
2022-05-28 12:41:49 GMT 38.947601 -77.456360 0 290 10 0
2022-05-28 12:41:48 GMT 38.947578 -77.456306 0 290 11 0
2022-05-28 12:41:46 GMT 38.947559 -77.456192 0 298 10 0
2022-05-28 12:41:45 GMT 38.947521 -77.456078 0 296 10 0
2022-05-28 12:41:43 GMT 38.947491 -77.456032 0 295 10 0
2022-05-28 12:41:41 GMT 38.947460 -77.455910 0 298 9 0
2022-05-28 12:41:40 GMT 38.947449 -77.455872 0 294 10 0
2022-05-28 12:41:38 GMT 38.947392 -77.455772 0 280 8 0
2022-05-28 12:41:37 GMT 38.947369 -77.455688 0 276 9 0
2022-05-28 12:41:35 GMT 38.947361 -77.455627 0 276 8 0
2022-05-28 12:41:34 GMT 38.947361 -77.455528 0 271 9 0
2022-05-28 12:41:32 GMT 38.947350 -77.455482 0 267 9 0
2022-05-28 12:41:30 GMT 38.947330 -77.455383 0 262 9 0
2022-05-28 12:41:28 GMT 38.947361 -77.455292 0 272 10 0
2022-05-28 12:41:27 GMT 38.947361 -77.455147 0 268 6 0
2022-05-28 12:41:24 GMT 38.947338 -77.455070 0 253 5 0
2022-05-28 12:41:22 GMT 38.947338 -77.455009 0 247 5 32
2022-05-28 12:41:19 GMT 38.947361 -77.454872 0 239 1 32
2022-05-28 12:41:18 GMT 38.947369 -77.454857 0 237 2 0
2022-05-28 12:41:16 GMT 38.947369 -77.454842 0 237 1 0
2022-05-28 12:41:14 GMT 38.947330 -77.454803 0 235 1 0
2022-05-28 12:41:13 GMT 38.947361 -77.454811 0 234 2 0
2022-05-28 12:41:12 GMT 38.947369 -77.454819 0 232 2 0
2022-05-28 12:41:10 GMT 38.947361 -77.454811 0 231 2 0
2022-05-28 12:41:08 GMT 38.947350 -77.454781 0 225 2 192
2022-05-28 12:41:07 GMT 38.947330 -77.454781 0 224 1 192
2022-05-28 12:41:05 GMT 38.947300 -77.454788 0 231 2 192
2022-05-28 12:41:04 GMT 38.947300 -77.454819 0 235 4 192
2022-05-28 12:41:02 GMT 38.947338 -77.454819 0 236 3 192
2022-05-28 12:41:01 GMT 38.947330 -77.454842 0 238 4 192
2022-05-28 12:40:59 GMT 38.947380 -77.454758 0 238 1 192
2022-05-28 12:40:57 GMT 38.947369 -77.454758 0 238 1 192
2022-05-28 12:40:56 GMT 38.947380 -77.454750 0 238 1 192
2022-05-28 12:40:54 GMT 38.947392 -77.454758 0 238 2 192
2022-05-28 12:40:53 GMT 38.947369 -77.454750 0 239 1 192
2022-05-28 12:40:51 GMT 38.947361 -77.454758 0 243 2 192
2022-05-28 12:40:49 GMT 38.947392 -77.454811 0 240 2 192
2022-05-28 12:40:47 GMT 38.947392 -77.454758 0 234 4 192
2022-05-28 12:40:45 GMT 38.947300 -77.454773 0 280 4 192
2022-05-28 12:40:43 GMT 38.947369 -77.454773 0 283 2 192
2022-05-28 12:40:42 GMT 38.947392 -77.454803 0 290 7 192
2022-05-28 12:40:38 GMT 38.947350 -77.454697 0 275 10 192
2022-05-28 12:40:36 GMT 38.947300 -77.454559 0 269 8 192
2022-05-28 12:40:35 GMT 38.947319 -77.454483 0 272 7 192
2022-05-28 12:40:33 GMT 38.947330 -77.454430 0 276 10 192
2022-05-28 12:40:32 GMT 38.947338 -77.454308 0 277 11 192
2022-05-28 12:40:30 GMT 38.947311 -77.454201 0 266 11 192
2022-05-28 12:40:28 GMT 38.947311 -77.454132 0 264 11 192
2022-05-28 12:40:27 GMT 38.947350 -77.453949 0 265 9 192
2022-05-28 12:40:25 GMT 38.947311 -77.453934 0 262 11 192
2022-05-28 12:40:23 GMT 38.947330 -77.453789 0 265 10 192
2022-05-28 12:40:22 GMT 38.947350 -77.453743 0 268 10 0
2022-05-28 12:36:15 GMT 38.947269 -77.441940 0 190 2 0
2022-05-28 12:36:13 GMT 38.947281 -77.441971 0 190 2 0
2022-05-28 12:36:11 GMT 38.947269 -77.441948 0 189 2 0
2022-05-28 12:36:09 GMT 38.947281 -77.441917 0 187 2 0
2022-05-28 12:36:08 GMT 38.947281 -77.441910 0 186 2 0
2022-05-28 12:36:06 GMT 38.947281 -77.441872 0 184 2 0
2022-05-28 12:36:04 GMT 38.947269 -77.441803 0 181 1 0
2022-05-28 12:36:03 GMT 38.947250 -77.441772 0 178 1 0
2022-05-28 12:36:01 GMT 38.947250 -77.441750 0 178 1 0
2022-05-28 12:35:59 GMT 38.947239 -77.441772 0 178 1 0
2022-05-28 12:35:58 GMT 38.947262 -77.441727 0 178 0 0
2022-05-28 12:35:56 GMT 38.947262 -77.441719 0 178 0 0
2022-05-28 12:35:54 GMT 38.947281 -77.441704 0 178 0 0
2022-05-28 12:35:53 GMT 38.947289 -77.441711 0 178 1 0
2022-05-28 12:35:51 GMT 38.947319 -77.441727 0 177 1 0
2022-05-28 12:35:48 GMT 38.947311 -77.441727 0 175 2 0
2022-05-28 12:35:46 GMT 38.947269 -77.441727 0 173 1 0
2022-05-28 12:35:45 GMT 38.947300 -77.441711 0 172 1 0
2022-05-28 12:35:42 GMT 38.947330 -77.441711 0 170 2 0
2022-05-28 12:35:40 GMT 38.947311 -77.441650 0 170 1 0
2022-05-28 12:35:38 GMT 38.947281 -77.441650 0 170 1 0
2022-05-28 12:35:37 GMT 38.947289 -77.441650 0 170 1 0
2022-05-28 12:35:35 GMT 38.947350 -77.441704 0 170 3 0
2022-05-28 12:35:34 GMT 38.947319 -77.441704 0 170 1 0
2022-05-28 12:35:32 GMT 38.947231 -77.441711 0 170 1 0
2022-05-28 12:35:30 GMT 38.947319 -77.441589 0 173 3 0
2022-05-28 12:35:29 GMT 38.947311 -77.441628 0 175 4 0
2022-05-28 12:35:26 GMT 38.947269 -77.441750 0 175 2 0
2022-05-28 12:35:24 GMT 38.947300 -77.441742 0 174 0 0
2022-05-28 12:35:23 GMT 38.947262 -77.441658 0 174 1 0
2022-05-28 12:35:20 GMT 38.947262 -77.441658 0 174 1 0
2022-05-28 12:35:19 GMT 38.947269 -77.441658 0 174 1 0
2022-05-28 12:35:17 GMT 38.947262 -77.441711 0 174 2 0
2022-05-28 12:35:16 GMT 38.947269 -77.441704 0 174 2 0
2022-05-28 12:35:14 GMT 38.947319 -77.441643 0 174 1 0
2022-05-28 12:35:13 GMT 38.947311 -77.441650 0 176 1 0
2022-05-28 12:35:11 GMT 38.947338 -77.441711 0 176 3 0
2022-05-28 12:35:10 GMT 38.947319 -77.441711 0 174 2 0
2022-05-28 12:35:08 GMT 38.947262 -77.441681 0 174 0 0
2022-05-28 12:35:07 GMT 38.947300 -77.441658 0 175 1 0
2022-05-28 12:35:05 GMT 38.947311 -77.441658 0 175 1 0
2022-05-28 12:35:03 GMT 38.947281 -77.441704 0 174 1 0
2022-05-28 12:35:01 GMT 38.947281 -77.441658 0 173 1 0
2022-05-28 12:35:00 GMT 38.947300 -77.441673 0 173 1 0
2022-05-28 12:34:58 GMT 38.947311 -77.441650 0 173 1 0
2022-05-28 12:34:56 GMT 38.947350 -77.441727 0 173 3 0
2022-05-28 12:34:54 GMT 38.947289 -77.441658 0 173 0 0
2022-05-28 12:34:52 GMT 38.947289 -77.441658 0 173 0 0
2022-05-28 12:34:50 GMT 38.947262 -77.441681 0 173 0 0
2022-05-28 12:34:48 GMT 38.947231 -77.441719 0 173 0 0
2022-05-28 12:34:46 GMT 38.947182 -77.441750 0 173 1 0
2022-05-28 12:34:44 GMT 38.947201 -77.441719 0 174 1 0
2022-05-28 12:34:43 GMT 38.947262 -77.441673 0 174 1 0
2022-05-28 12:34:40 GMT 38.947289 -77.441673 0 174 1 0
2022-05-28 12:34:39 GMT 38.947300 -77.441681 0 174 1 0
2022-05-28 12:34:37 GMT 38.947311 -77.441711 0 174 0 0
2022-05-28 12:34:33 GMT 38.947311 -77.441711 0 174 0 0
2022-05-28 12:34:32 GMT 38.947289 -77.441658 0 174 0 0
2022-05-28 12:34:31 GMT 38.947289 -77.441650 0 174 1 0
2022-05-28 12:34:29 GMT 38.947289 -77.441704 0 174 0 0
2022-05-28 12:34:27 GMT 38.947269 -77.441689 0 175 1 0
2022-05-28 12:34:26 GMT 38.947300 -77.441673 0 176 1 0
2022-05-28 12:34:24 GMT 38.947300 -77.441711 0 176 0 0
2022-05-28 12:34:22 GMT 38.947300 -77.441711 0 176 0 0
2022-05-28 12:34:20 GMT 38.947311 -77.441704 0 176 0 0
2022-05-28 12:34:18 GMT 38.947311 -77.441704 0 176 0 0
2022-05-28 12:34:17 GMT 38.947311 -77.441681 0 176 0 0
2022-05-28 12:34:15 GMT 38.947311 -77.441689 0 176 0 0
2022-05-28 12:34:13 GMT 38.947319 -77.441704 0 176 0 0
2022-05-28 12:34:10 GMT 38.947311 -77.441689 0 176 0 0
2022-05-28 12:34:09 GMT 38.947300 -77.441719 0 176 0 0
2022-05-28 12:34:07 GMT 38.947250 -77.441757 0 176 1 0
2022-05-28 12:34:04 GMT 38.947300 -77.441757 0 176 1 0
2022-05-28 12:34:01 GMT 38.947289 -77.441757 0 176 0 0
2022-05-28 12:34:00 GMT 38.947281 -77.441757 0 176 0 0
2022-05-28 12:33:58 GMT 38.947289 -77.441750 0 176 1 0
2022-05-28 12:33:57 GMT 38.947281 -77.441750 0 176 1 0
2022-05-28 12:33:55 GMT 38.947338 -77.441719 0 176 1 0
2022-05-28 12:33:53 GMT 38.947330 -77.441711 0 176 1 0
2022-05-28 12:33:52 GMT 38.947231 -77.441719 0 175 1 0
2022-05-28 12:33:50 GMT 38.947281 -77.441681 0 175 1 0
2022-05-28 12:33:48 GMT 38.947289 -77.441673 0 175 1 0
2022-05-28 12:33:46 GMT 38.947289 -77.441719 0 174 1 0
2022-05-28 12:33:44 GMT 38.947319 -77.441711 0 174 0 0
2022-05-28 12:33:43 GMT 38.947311 -77.441750 0 170 1 0
2022-05-28 12:33:41 GMT 38.947289 -77.441597 0 171 1 0
2022-05-28 12:33:39 GMT 38.947289 -77.441597 0 172 1 0
2022-05-28 12:33:37 GMT 38.947311 -77.441643 0 176 1 0
2022-05-28 12:33:35 GMT 38.947311 -77.441650 0 176 1 0
2022-05-28 12:33:33 GMT 38.947289 -77.441689 0 176 0 0
2022-05-28 12:33:31 GMT 38.947281 -77.441704 0 176 1 0
2022-05-28 12:33:30 GMT 38.947289 -77.441704 0 176 1 0
2022-05-28 12:33:29 GMT 38.947338 -77.441704 0 176 2 0
2022-05-28 12:33:27 GMT 38.947289 -77.441704 0 176 1 0
2022-05-28 12:33:24 GMT 38.947319 -77.441689 0 176 1 0
2022-05-28 12:33:23 GMT 38.947311 -77.441711 0 176 1 0
2022-05-28 12:33:21 GMT 38.947311 -77.441727 0 176 1 0
2022-05-28 12:33:19 GMT 38.947319 -77.441719 0 176 0 0
2022-05-28 12:33:16 GMT 38.947289 -77.441704 0 175 1 0
2022-05-28 12:33:14 GMT 38.947319 -77.441704 0 175 0 0
2022-05-28 12:33:11 GMT 38.947319 -77.441681 0 175 0 0
2022-05-28 12:33:08 GMT 38.947319 -77.441681 0 175 0 0
2022-05-28 12:33:07 GMT 38.947319 -77.441689 0 174 0 0
2022-05-28 12:33:05 GMT 38.947319 -77.441681 0 174 0 0
2022-05-28 12:33:04 GMT 38.947330 -77.441681 0 176 1 0
2022-05-28 12:33:02 GMT 38.947319 -77.441681 0 179 1 0
2022-05-28 12:33:01 GMT 38.947311 -77.441681 0 179 1 0
2022-05-28 12:32:59 GMT 38.947311 -77.441704 0 179 0 0
2022-05-28 12:32:58 GMT 38.947311 -77.441689 0 179 0 0
2022-05-28 12:32:56 GMT 38.947311 -77.441704 0 178 1 0
2022-05-28 12:32:55 GMT 38.947319 -77.441689 0 177 1 0
2022-05-28 12:32:52 GMT 38.947289 -77.441673 0 177 2 0
2022-05-28 12:32:51 GMT 38.947311 -77.441673 0 177 1 0
2022-05-28 12:32:49 GMT 38.947269 -77.441658 0 178 3
2022-05-28 12:32:47 GMT 38.947201 -77.441772 0 180 9
2022-05-28 12:32:46 GMT 38.947208 -77.441742 0 171 13

Making use of Plane Finder data

You are free to use the raw flight data, aircraft information and images provided in this report for your own purposes provided the data is correctly attributed to Plane Finder. We ask that you please credit Plane Finder and link to planefinder.net in close proximity to the content.

Optionally one of the following logos (no smaller then 150x24px) can be used and must link to planefinder.net

Embedding the Plane Finder map

You are welcome to embed the Plane Finder playback map on your website to offer visitors a more interactive experience. We suggest using the following HTML code:

<iframe src="//planefinder.net/data/report/UA3778-N455AW-7700-squawk-2022-05-28/map" width="800" height="600" seamless="seamless"></iframe>

Where our data comes from

Plane Finder has a global network of data feeds and antenna radars that receive data broadcast directly from aircraft. The primary technologies used are ADS-B and MLAT. We also show feeds from the FAA and a FLARM glider feed.

Click here to find out more about the Plane Finder network.

How we collect our data